PORTS® Data Listing: 9075099 De Tour Village, MI

CO-OPS RAW PORTS DATA

************************      PRELIMINARY DATA      ************************** 

     THIS RAW DATA HAS NOT BEEN SUBJECT TO THE NATIONAL OCEAN SERVICE'S        
     QUALITY CONTROL OR QUALITY ASSURANCE PROCEDURES AND DOES NOT MEET         
     THE CRITERIA AND STANDARDS OF OFFICIAL NATIONAL OCEAN SERVICE             
     DATA.  IT IS RELEASED FOR LIMITED PUBLIC USE AS PRELIMINARY DATA TO       
     BE USED ONLY WITH APPROPRIATE CAUTION.                                    

************************      PRELIMINARY DATA      ************************** 


       CD   -   Calendar date
       T    -   Time
       TZ   -   Timezone
       SW   -   Observed secondary water level (inches IGLD 1985)
       PW   -   Observed primary water level (inches IGLD 1985)
       WS   -   Wind speed (knots)
       WD   -   Wind direction (degrees true)
       WG   -   Wind gust (knots)
       AT   -   Air temperature (degrees farenheit)
       WT   -   Water temperature (degrees farenheit)
       AP   -   Air pressure (millibars)
       SA   -   Salinty (PSU - Practical Salinity Units)
       SG   -   Specific gravity
       RH   -   Relative humidity
       AG   -   Air gap (feet)
       VI   -   Visibility (nautical miles)

       ** NOTE **
       A variable that has its data fields filled with "9"s, indicates that
       data was not collected for that sample period.
       **********


STATION NAME: De Tour Village (9075099)
****************************************************************************************************
    CD       T    TZ    SW     PW    WS   WD   WG    AT    WT    AP    SA    SG     RH    AG   VI
****************************************************************************************************
2019/10/16 00:06 EDT   50.67  50.71   12   91   16  47.7  55.2 1005.6 -9.9 -9.999 100.0 -99.99 -9.99
2019/10/16 00:12 EDT   50.83  50.87   12   89   14  47.7  55.2 1005.3 -9.9 -9.999 100.0 -99.99 -9.99
2019/10/16 00:18 EDT   50.94  50.98   14   83   16  47.8  55.2 1005.1 -9.9 -9.999 100.0 -99.99 -9.99
2019/10/16 00:24 EDT   50.83  50.87   12   81   17  48.0  55.2 1005.0 -9.9 -9.999 100.0 -99.99 -9.99
2019/10/16 00:30 EDT   51.10  51.10   13   80   16  48.0  55.2 1005.0 -9.9 -9.999 100.0 -99.99 -9.99
2019/10/16 00:36 EDT   50.91  50.94   14   74   17  48.0  55.2 1004.9 -9.9 -9.999 100.0 -99.99 -9.99
2019/10/16 00:42 EDT   50.55  50.59   13   75   17  48.2  55.2 1004.7 -9.9 -9.999 100.0 -99.99 -9.99
2019/10/16 00:48 EDT   50.12  50.16   13   82   17  48.2  55.2 1004.7 -9.9 -9.999 100.0 -99.99 -9.99
2019/10/16 00:54 EDT   49.92  49.96   11   70   15  48.4  55.2 1004.5 -9.9 -9.999 100.0 -99.99 -9.99
2019/10/16 01:00 EDT   50.83  50.87   14   67   17  48.6  55.2 1004.4 -9.9 -9.999 100.0 -99.99 -9.99
2019/10/16 01:06 EDT   50.98  51.02   15   68   19  48.7  55.2 1004.3 -9.9 -9.999 100.0 -99.99 -9.99
2019/10/16 01:12 EDT   51.22  51.22   14   71   19  48.7  55.2 1004.3 -9.9 -9.999 100.0 -99.99 -9.99
2019/10/16 01:18 EDT   50.67  50.71   16   77   19  48.7  55.2 1004.2 -9.9 -9.999 100.0 -99.99 -9.99
2019/10/16 01:24 EDT   50.67  50.71   14   75   20  48.7  55.2 1004.1 -9.9 -9.999 100.0 -99.99 -9.99
2019/10/16 01:30 EDT   50.28  50.31   14   71   18  48.7  55.2 1003.9 -9.9 -9.999 100.0 -99.99 -9.99
2019/10/16 01:36 EDT   50.35  50.35   14   70   20  48.7  55.2 1003.8 -9.9 -9.999 100.0 -99.99 -9.99
2019/10/16 01:42 EDT   49.80  49.84   13   69   17  48.9  55.2 1003.7 -9.9 -9.999 100.0 -99.99 -9.99
2019/10/16 01:48 EDT   49.45  49.49   17   71   23  49.1  55.2 1003.7 -9.9 -9.999 100.0 -99.99 -9.99
2019/10/16 01:54 EDT   50.16  50.20   13   65   19  49.3  55.2 1003.5 -9.9 -9.999 100.0 -99.99 -9.99
2019/10/16 02:00 EDT   49.76  49.84   15   58   19  48.7  55.2 1003.5 -9.9 -9.999 100.0 -99.99 -9.99
2019/10/16 02:06 EDT   50.31  50.31   18   63   22  48.7  55.2 1003.6 -9.9 -9.999 100.0 -99.99 -9.99
2019/10/16 02:12 EDT   50.63  50.67   17   64   25  48.6  55.2 1003.6 -9.9 -9.999 100.0 -99.99 -9.99
2019/10/16 02:18 EDT   50.31  50.35   18   65   25  48.4  55.2 1003.5 -9.9 -9.999 100.0 -99.99 -9.99
2019/10/16 02:24 EDT   50.12  50.16   15   65   26  48.4  55.2 1003.6 -9.9 -9.999 100.0 -99.99 -9.99
2019/10/16 02:30 EDT   49.57  49.61   16   64   25  48.2  55.2 1003.5 -9.9 -9.999 100.0 -99.99 -9.99
2019/10/16 02:36 EDT   49.61  49.65   18   66   25  47.8  55.2 1003.2 -9.9 -9.999 100.0 -99.99 -9.99
2019/10/16 02:42 EDT   49.41  49.49   19   65   23  47.8  55.2 1003.0 -9.9 -9.999 100.0 -99.99 -9.99
2019/10/16 02:48 EDT   50.24  50.28   17   67   23  47.5  55.2 1002.8 -9.9 -9.999 100.0 -99.99 -9.99
2019/10/16 02:54 EDT   49.41  49.45   17   65   24  47.3  55.2 1002.8 -9.9 -9.999 100.0 -99.99 -9.99
2019/10/16 03:00 EDT   49.80  49.84   17   61   23  47.5  55.2 1002.9 -9.9 -9.999 100.0 -99.99 -9.99
2019/10/16 03:06 EDT   50.28  50.31   17   60   23  47.5  55.2 1002.8 -9.9 -9.999 100.0 -99.99 -9.99
2019/10/16 03:12 EDT   50.00  50.04   18   54   22  47.3  55.2 1002.8 -9.9 -9.999 100.0 -99.99 -9.99
2019/10/16 03:18 EDT   50.08  50.12   18   59   22  47.3  55.2 1002.6 -9.9 -9.999 100.0 -99.99 -9.99
2019/10/16 03:24 EDT   49.88  49.92   19   59   24  47.5  55.2 1002.6 -9.9 -9.999 100.0 -99.99 -9.99
2019/10/16 03:30 EDT   49.21  49.25   18   61   22  47.3  55.2 1002.4 -9.9 -9.999 100.0 -99.99 -9.99
2019/10/16 03:36 EDT   48.78  48.82   18   58   24  47.3  55.2 1002.1 -9.9 -9.999 100.0 -99.99 -9.99
2019/10/16 03:42 EDT   49.21  49.25   20   60   25  47.1  55.2 1001.9 -9.9 -9.999 100.0 -99.99 -9.99
2019/10/16 03:48 EDT   48.94  48.98   20   59   24  47.5  55.2 1001.9 -9.9 -9.999 100.0 -99.99 -9.99
2019/10/16 03:54 EDT   49.17  49.21   20   58   25  47.3  55.2 1001.8 -9.9 -9.999 100.0 -99.99 -9.99
2019/10/16 04:00 EDT   49.84  49.88   20   58   25  47.3  55.2 1001.7 -9.9 -9.999 100.0 -99.99 -9.99
2019/10/16 04:06 EDT   49.29  49.37   21   55   26  47.1  55.2 1001.7 -9.9 -9.999 100.0 -99.99 -9.99
2019/10/16 04:12 EDT   49.65  49.69   20   62   26  47.1  55.2 1001.8 -9.9 -9.999 100.0 -99.99 -9.99
2019/10/16 04:18 EDT   49.57  49.61   18   58   23  47.3  55.2 1001.8 -9.9 -9.999 100.0 -99.99 -9.99
2019/10/16 04:24 EDT   49.06  49.09   18   54   26  47.1  55.2 1001.6 -9.9 -9.999 100.0 -99.99 -9.99
2019/10/16 04:30 EDT   48.94  48.98   20   55   24  47.1  55.2 1001.6 -9.9 -9.999 100.0 -99.99 -9.99
2019/10/16 04:36 EDT   48.58  48.62   19   57   24  46.9  55.2 1001.8 -9.9 -9.999 100.0 -99.99 -9.99
2019/10/16 04:42 EDT   48.39  48.43   18   55   27  46.9  55.2 1001.8 -9.9 -9.999 100.0 -99.99 -9.99
2019/10/16 04:48 EDT   48.70  48.78   20   52   25  47.1  55.2 1001.7 -9.9 -9.999  99.9 -99.99 -9.99
2019/10/16 04:54 EDT   48.58  48.62   21   56   26  46.9  55.2 1001.5 -9.9 -9.999 100.0 -99.99 -9.99
2019/10/16 05:00 EDT   48.90  48.94   16   57   24  47.1  55.2 1001.6 -9.9 -9.999 100.0 -99.99 -9.99
2019/10/16 05:06 EDT   49.33  49.33   19   55   24  46.9  55.2 1001.6 -9.9 -9.999 100.0 -99.99 -9.99
2019/10/16 05:12 EDT   49.92  49.96   20   50   24  46.8  55.2 1001.5 -9.9 -9.999  99.9 -99.99 -9.99
2019/10/16 05:18 EDT   49.69  49.72   21   51   26  47.1  55.2 1001.4 -9.9 -9.999  99.7 -99.99 -9.99
2019/10/16 05:24 EDT   49.25  49.29   21   52   26  46.9  55.2 1001.4 -9.9 -9.999  99.8 -99.99 -9.99
2019/10/16 05:30 EDT   48.86  48.90   21   52   25  46.9  55.2 1001.3 -9.9 -9.999 100.0 -99.99 -9.99
2019/10/16 05:36 EDT   48.27  48.35   21   53   24  46.9  55.2 1001.2 -9.9 -9.999 100.0 -99.99 -9.99
2019/10/16 05:42 EDT   47.76  47.80   21   49   25  46.9  55.2 1001.2 -9.9 -9.999  99.9 -99.99 -9.99
2019/10/16 05:48 EDT   48.66  48.70   20   52   24  47.1  55.4 1001.2 -9.9 -9.999 100.0 -99.99 -9.99
2019/10/16 05:54 EDT   48.74  48.78   23   47   27  46.8  55.4 1001.2 -9.9 -9.999 100.0 -99.99 -9.99
2019/10/16 06:00 EDT   48.70  48.74   23   45   27  46.8  55.4 1001.1 -9.9 -9.999 100.0 -99.99 -9.99
2019/10/16 06:06 EDT   49.65  49.69   24   47   27  46.6  55.4 1001.2 -9.9 -9.999 100.0 -99.99 -9.99
2019/10/16 06:12 EDT   49.45  49.49   22   49   28  46.6  55.4 1001.2 -9.9 -9.999 100.0 -99.99 -9.99
2019/10/16 06:18 EDT   48.98  49.02   21   46   27  46.6  55.4 1001.2 -9.9 -9.999 100.0 -99.99 -9.99
2019/10/16 06:24 EDT   48.86  48.90   25   51   29  46.4  55.4 1001.2 -9.9 -9.999  99.8 -99.99 -9.99
2019/10/16 06:30 EDT   48.11  48.15   25   55   28  46.4  55.4 1001.2 -9.9 -9.999  99.3 -99.99 -9.99
2019/10/16 06:36 EDT   47.83  47.91   25   53   33  46.4  55.4 1001.2 -9.9 -9.999  99.0 -99.99 -9.99
2019/10/16 06:42 EDT   47.83  47.91   25   55   30  46.4  55.4 1001.2 -9.9 -9.999  98.2 -99.99 -9.99
2019/10/16 06:48 EDT   47.64  47.72   26   52   29  46.4  55.4 1001.2 -9.9 -9.999  98.4 -99.99 -9.99
2019/10/16 06:54 EDT   47.80  47.83   23   48   30  46.6  55.6 1001.2 -9.9 -9.999  98.5 -99.99 -9.99
2019/10/16 07:00 EDT   48.19  48.23   28   47   31  46.2  55.6 1001.2 -9.9 -9.999  96.4 -99.99 -9.99
2019/10/16 07:06 EDT   48.50  48.54   27   50   30  46.4  55.6 1001.2 -9.9 -9.999  96.6 -99.99 -9.99
2019/10/16 07:12 EDT   48.66  48.70   25   49   31  46.2  55.6 1001.2 -9.9 -9.999  96.8 -99.99 -9.99
2019/10/16 07:18 EDT   48.39  48.43   25   48   33  46.2  55.6 1001.2 -9.9 -9.999  97.8 -99.99 -9.99
2019/10/16 07:24 EDT   48.19  48.23   24   41   29  46.2  55.8 1001.0 -9.9 -9.999  98.8 -99.99 -9.99
2019/10/16 07:30 EDT   48.11  48.19   25   41   29  45.5  55.8 1001.0 -9.9 -9.999  99.5 -99.99 -9.99
2019/10/16 07:36 EDT   47.64  47.68   23   43   29  45.9  55.8 1001.2 -9.9 -9.999 100.0 -99.99 -9.99
2019/10/16 07:42 EDT   47.83  47.87   24   42   30  45.5  55.8 1001.1 -9.9 -9.999 100.0 -99.99 -9.99
2019/10/16 07:48 EDT   47.87  47.95   22   40   30  45.9  55.8 1001.1 -9.9 -9.999 100.0 -99.99 -9.99
2019/10/16 07:54 EDT   47.64  47.68   24   39   29  45.3  55.8 1001.1 -9.9 -9.999 100.0 -99.99 -9.99
2019/10/16 08:00 EDT   48.43  48.50   24   32   27  45.1  55.8 1001.2 -9.9 -9.999 100.0 -99.99 -9.99
2019/10/16 08:06 EDT   48.82  48.86   22   40   27  45.3  55.6 1001.1 -9.9 -9.999 100.0 -99.99 -9.99
2019/10/16 08:12 EDT   48.58  48.62   24   28   30  44.6  55.6 1001.0 -9.9 -9.999 100.0 -99.99 -9.99
2019/10/16 08:18 EDT   48.66  48.66   24   27   31  45.0  55.6 1001.1 -9.9 -9.999 100.0 -99.99 -9.99
2019/10/16 08:24 EDT   48.43  48.46   29   20   33  44.6  55.6 1001.0 -9.9 -9.999 100.0 -99.99 -9.99
2019/10/16 08:30 EDT   47.83  47.87   25   23   30  45.0  55.6 1001.2 -9.9 -9.999 100.0 -99.99 -9.99
2019/10/16 08:36 EDT   47.56  47.60   25   23   30  44.8  55.6 1001.2 -9.9 -9.999 100.0 -99.99 -9.99
2019/10/16 08:42 EDT   47.20  47.24   25   25   29  44.6  55.6 1001.2 -9.9 -9.999 100.0 -99.99 -9.99
2019/10/16 08:48 EDT   47.28  47.32   25   27   31  44.4  55.6 1001.3 -9.9 -9.999 100.0 -99.99 -9.99
2019/10/16 08:54 EDT   47.64  47.68   24   22   31  44.6  55.6 1001.4 -9.9 -9.999 100.0 -99.99 -9.99
2019/10/16 09:00 EDT   47.60  47.64   22   25   30  44.4  55.6 1001.3 -9.9 -9.999 100.0 -99.99 -9.99
2019/10/16 09:06 EDT   47.72  47.76   25   21   28  43.9  55.6 1001.5 -9.9 -9.999 100.0 -99.99 -9.99
2019/10/16 09:12 EDT   47.40  47.44   25   26   33  44.1  55.6 1001.6 -9.9 -9.999 100.0 -99.99 -9.99
2019/10/16 09:18 EDT   47.01  47.05   22   25   30  44.6  55.6 1001.6 -9.9 -9.999 100.0 -99.99 -9.99
2019/10/16 09:24 EDT   46.57  46.61   24   26   28  43.7  55.6 1001.8 -9.9 -9.999 100.0 -99.99 -9.99
2019/10/16 09:30 EDT   45.98  46.06   24   22   30  44.4  55.6 1001.6 -9.9 -9.999 100.0 -99.99 -9.99
2019/10/16 09:36 EDT   45.79  45.83   21   27   33  43.9  55.6 1001.8 -9.9 -9.999 100.0 -99.99 -9.99
2019/10/16 09:42 EDT   45.43  45.51   25   25   30  43.2  55.6 1001.7 -9.9 -9.999 100.0 -99.99 -9.99
2019/10/16 09:48 EDT   45.55  45.67   20   28   26  44.1  55.6 1001.8 -9.9 -9.999 100.0 -99.99 -9.99
2019/10/16 09:54 EDT   45.94  46.14   21   29   27  43.9  55.6 1001.8 -9.9 -9.999 100.0 -99.99 -9.99
2019/10/16 10:00 EDT   46.22  46.26   24   24   31  43.5  55.6 1001.8 -9.9 -9.999 100.0 -99.99 -9.99
2019/10/16 10:06 EDT   46.26  46.30   25   22   31  43.7  55.6 1001.7 -9.9 -9.999 100.0 -99.99 -9.99
2019/10/16 10:12 EDT   46.02  46.10   24   15   30  43.2  55.6 1001.7 -9.9 -9.999 100.0 -99.99 -9.99
2019/10/16 10:18 EDT   45.75  45.79   24   18   28  43.0  55.6 1001.6 -9.9 -9.999 100.0 -99.99 -9.99
2019/10/16 10:24 EDT   45.47  45.55   24   12   31  43.0  55.6 1001.7 -9.9 -9.999 100.0 -99.99 -9.99
2019/10/16 10:30 EDT   44.76  44.80   25   18   28  43.2  55.6 1001.9 -9.9 -9.999 100.0 -99.99 -9.99
2019/10/16 10:36 EDT   44.29  44.33   23   16   28  43.3  55.6 1001.7 -9.9 -9.999 100.0 -99.99 -9.99
2019/10/16 10:42 EDT   43.86  43.90   22   16   28  43.5  55.6 1001.8 -9.9 -9.999 100.0 -99.99 -9.99
2019/10/16 10:48 EDT   44.29  44.33   24   11   26  43.3  55.6 1001.7 -9.9 -9.999 100.0 -99.99 -9.99
2019/10/16 10:54 EDT   44.65  44.69   27   18   31  43.2  55.6 1001.9 -9.9 -9.999 100.0 -99.99 -9.99
2019/10/16 11:00 EDT   44.57  44.61   22   14   31  43.5  55.6 1001.8 -9.9 -9.999 100.0 -99.99 -9.99
2019/10/16 11:06 EDT   44.72  44.72   24    6   27  42.8  55.6 1001.7 -9.9 -9.999  99.9 -99.99 -9.99
2019/10/16 11:12 EDT   44.61  44.65   24   10   27  43.2  55.6 1001.8 -9.9 -9.999  99.9 -99.99 -9.99
2019/10/16 11:18 EDT   44.21  44.21   23   10   26  43.2  55.4 1001.8 -9.9 -9.999  99.8 -99.99 -9.99
2019/10/16 11:24 EDT   43.74  43.78   20    6   26  43.2  55.4 1002.0 -9.9 -9.999  99.8 -99.99 -9.99
2019/10/16 11:30 EDT   43.39  43.43   20    6   24  43.2  55.4 1002.0 -9.9 -9.999  99.8 -99.99 -9.99
2019/10/16 11:36 EDT   43.46  43.50   22    6   27  43.0  55.4 1002.0 -9.9 -9.999  98.4 -99.99 -9.99
2019/10/16 11:42 EDT   43.31  43.35   24    7   27  43.0  55.4 1002.0 -9.9 -9.999  98.2 -99.99 -9.99
2019/10/16 11:48 EDT   43.50  43.50   22    6   25  43.0  55.4 1002.1 -9.9 -9.999  98.2 -99.99 -9.99
2019/10/16 11:54 EDT   43.62  43.66   21    5   24  43.0  55.4 1002.1 -9.9 -9.999  97.8 -99.99 -9.99
2019/10/16 12:00 EDT   43.62  43.62   19    4   26  43.3  55.4 1002.2 -9.9 -9.999  98.4 -99.99 -9.99
2019/10/16 12:06 EDT   43.66  43.66   23    3   29  43.2  55.4 1002.2 -9.9 -9.999  96.6 -99.99 -9.99
2019/10/16 12:12 EDT   43.27  43.31   20    7   28  43.7  55.4 1002.2 -9.9 -9.999  97.6 -99.99 -9.99
2019/10/16 12:18 EDT   43.39  43.39   22    3   29  43.5  55.4 1002.2 -9.9 -9.999  97.1 -99.99 -9.99
2019/10/16 12:24 EDT   42.95  42.95   21    2   24  43.3  55.4 1002.3 -9.9 -9.999  96.6 -99.99 -9.99
2019/10/16 12:30 EDT   42.76  42.76   21    6   25  43.2  55.4 1002.2 -9.9 -9.999  96.4 -99.99 -9.99
2019/10/16 12:36 EDT   42.56  42.60   20    6   26  43.3  55.4 1002.3 -9.9 -9.999  96.2 -99.99 -9.99
2019/10/16 12:42 EDT   42.68  42.72   22    6   29  43.3  55.4 1002.4 -9.9 -9.999  96.3 -99.99 -9.99
2019/10/16 12:48 EDT   42.99  43.03   22    1   29  43.2  55.4 1002.4 -9.9 -9.999  95.4 -99.99 -9.99
2019/10/16 12:54 EDT   43.03  43.07   24    3   28  42.8  55.4 1002.4 -9.9 -9.999  93.3 -99.99 -9.99
2019/10/16 13:00 EDT   43.07  43.11   22    2   29  43.0  55.4 1002.4 -9.9 -9.999  94.1 -99.99 -9.99
2019/10/16 13:06 EDT   42.91  42.95   23    6   28  42.8  55.4 1002.5 -9.9 -9.999  93.5 -99.99 -9.99
2019/10/16 13:12 EDT   42.91  42.91   22    0   27  42.8  55.4 1002.4 -9.9 -9.999  94.1 -99.99 -9.99
2019/10/16 13:18 EDT   42.76  42.76   20  359   27  42.6  55.4 1002.5 -9.9 -9.999  94.9 -99.99 -9.99
2019/10/16 13:24 EDT   42.48  42.52   19  358   27  42.8  55.4 1002.5 -9.9 -9.999  95.5 -99.99 -9.99
2019/10/16 13:30 EDT   42.20  42.24   20  360   26  42.6  55.4 1002.6 -9.9 -9.999  95.6 -99.99 -9.99
2019/10/16 13:36 EDT   42.13  42.17   18  353   24  42.4  55.4 1002.6 -9.9 -9.999  95.7 -99.99 -9.99
2019/10/16 13:42 EDT   42.20  42.20   18  348   27  42.3  55.4 1002.7 -9.9 -9.999  95.4 -99.99 -9.99
2019/10/16 13:48 EDT   42.44  42.48   19  356   22  42.4  55.4 1002.7 -9.9 -9.999  96.2 -99.99 -9.99
2019/10/16 13:54 EDT   42.56  42.60   15  346   23  42.1  55.4 1002.7 -9.9 -9.999  97.3 -99.99 -9.99
2019/10/16 14:00 EDT   42.60  42.64   13  344   19  41.9  55.4 1002.7 -9.9 -9.999  98.0 -99.99 -9.99
2019/10/16 14:06 EDT   42.68  42.68   14  340   23  41.7  55.4 1002.8 -9.9 -9.999  98.2 -99.99 -9.99
2019/10/16 14:12 EDT   42.60  42.64   13  344   23  42.1  55.4 1002.9 -9.9 -9.999  99.2 -99.99 -9.99
2019/10/16 14:18 EDT   42.44  42.48   12  343   20  41.9  55.4 1002.9 -9.9 -9.999  99.3 -99.99 -9.99
2019/10/16 14:24 EDT   42.32  42.32   13  341   22  42.1  55.4 1002.9 -9.9 -9.999  98.8 -99.99 -9.99
2019/10/16 14:30 EDT   42.17  42.20   14  345   22  42.3  55.4 1002.9 -9.9 -9.999  98.3 -99.99 -9.99
2019/10/16 14:36 EDT   41.97  42.01   16  346   20  42.4  55.4 1002.9 -9.9 -9.999  97.8 -99.99 -9.99
2019/10/16 14:42 EDT   42.09  42.13   15  345   22  42.3  55.4 1003.0 -9.9 -9.999  97.2 -99.99 -9.99
2019/10/16 14:48 EDT   42.24  42.28   13  341   22  42.3  55.4 1003.0 -9.9 -9.999  97.6 -99.99 -9.99
2019/10/16 14:54 EDT   42.13  42.17   16  341   25  42.3  55.4 1003.0 -9.9 -9.999  96.9 -99.99 -9.99
2019/10/16 15:00 EDT   42.32  42.36   15  339   23  42.1  55.4 1003.1 -9.9 -9.999  91.1 -99.99 -9.99
2019/10/16 15:06 EDT   42.56  42.60   15  338   20  42.3  55.4 1003.1 -9.9 -9.999  96.4 -99.99 -9.99
2019/10/16 15:12 EDT   42.40  42.44   16  340   23  42.4  55.4 1003.1 -9.9 -9.999  96.7 -99.99 -9.99
2019/10/16 15:18 EDT   42.05  42.09   14  340   22  42.4  55.4 1003.2 -9.9 -9.999  96.3 -99.99 -9.99
2019/10/16 15:24 EDT   41.97  42.01   14  344   20  42.4  55.4 1003.3 -9.9 -9.999  96.3 -99.99 -9.99
2019/10/16 15:30 EDT   41.73  41.77   14  342   22  42.4  55.4 1003.4 -9.9 -9.999  95.8 -99.99 -9.99
2019/10/16 15:36 EDT   41.50  41.54   10  343   21  42.4  55.4 1003.5 -9.9 -9.999  96.8 -99.99 -9.99
2019/10/16 15:42 EDT   41.57  41.61   14  339   20  42.4  55.4 1003.6 -9.9 -9.999  96.8 -99.99 -9.99
2019/10/16 15:48 EDT   41.46  41.50   16  343   25  42.6  55.4 1003.7 -9.9 -9.999  95.9 -99.99 -9.99
2019/10/16 15:54 EDT   41.42  41.46   15  339   21  42.4  55.4 1003.8 -9.9 -9.999  96.5 -99.99 -9.99
2019/10/16 16:00 EDT   41.61  41.65   11  339   21  42.3  55.4 1003.9 -9.9 -9.999  97.7 -99.99 -9.99
2019/10/16 16:06 EDT   41.65  41.69   14  341   20  42.4  55.4 1004.0 -9.9 -9.999  97.6 -99.99 -9.99
2019/10/16 16:12 EDT   41.46  41.50   15  342   22  42.6  55.4 1004.0 -9.9 -9.999  97.0 -99.99 -9.99
2019/10/16 16:18 EDT   41.22  41.26   14  342   22  42.4  55.4 1004.1 -9.9 -9.999  97.5 -99.99 -9.99
2019/10/16 16:24 EDT   40.98  41.02   14  344   24  42.6  55.4 1004.1 -9.9 -9.999  97.6 -99.99 -9.99
2019/10/16 16:30 EDT   40.67  40.71   14  346   19  42.6  55.4 1004.2 -9.9 -9.999  96.9 -99.99 -9.99
2019/10/16 16:36 EDT   40.59  40.63   16  341   25  42.6  55.4 1004.3 -9.9 -9.999  95.7 -99.99 -9.99
2019/10/16 16:42 EDT   40.51  40.55   17  341   26  42.4  55.4 1004.3 -9.9 -9.999  95.8 -99.99 -9.99
2019/10/16 16:48 EDT   40.51  40.55   15  340   26  42.3  55.4 1004.4 -9.9 -9.999  97.2 -99.99 -9.99
2019/10/16 16:54 EDT   40.51  40.55   16  346   25  42.3  55.4 1004.5 -9.9 -9.999  97.4 -99.99 -9.99
2019/10/16 17:00 EDT   40.59  40.63   16  341   23  42.1  55.4 1004.6 -9.9 -9.999  97.4 -99.99 -9.99
2019/10/16 17:06 EDT   40.43  40.47   19  345   25  42.4  55.4 1004.6 -9.9 -9.999  95.8 -99.99 -9.99
2019/10/16 17:12 EDT   40.31  40.35   14  342   22  42.4  55.4 1004.7 -9.9 -9.999  96.4 -99.99 -9.99
2019/10/16 17:18 EDT   40.39  40.43   18  343   27  42.6  55.4 1004.7 -9.9 -9.999  94.6 -99.99 -9.99
2019/10/16 17:24 EDT   40.16  40.20   17  340   28  42.4  55.4 1004.8 -9.9 -9.999  94.7 -99.99 -9.99
2019/10/16 17:30 EDT   39.96  40.00   21  348   26  42.4  55.4 1004.8 -9.9 -9.999  94.6 -99.99 -9.99
2019/10/16 17:36 EDT   39.72  39.76   18  342   27  42.4  55.4 1005.0 -9.9 -9.999  95.4 -99.99 -9.99
2019/10/16 17:42 EDT   39.37  39.41   18  346   27  42.6  55.2 1005.1 -9.9 -9.999  95.4 -99.99 -9.99
2019/10/16 17:48 EDT   39.80  39.84   21  343   29  42.6  55.2 1005.1 -9.9 -9.999  94.0 -99.99 -9.99
2019/10/16 17:54 EDT   39.84  39.88   15  339   25  42.6  55.2 1005.3 -9.9 -9.999  95.1 -99.99 -9.99
2019/10/16 18:00 EDT   40.00  40.04   17  346   27  42.6  55.2 1005.3 -9.9 -9.999  93.7 -99.99 -9.99
2019/10/16 18:06 EDT   40.08  40.12   19  347   30  42.6  55.2 1005.3 -9.9 -9.999  92.7 -99.99 -9.99
2019/10/16 18:12 EDT   40.08  40.12   20  345   27  42.8  55.2 1005.4 -9.9 -9.999  92.6 -99.99 -9.99
2019/10/16 18:18 EDT   40.00  40.04   19  345   30  43.0  55.2 1005.6 -9.9 -9.999  91.7 -99.99 -9.99
2019/10/16 18:24 EDT   39.88  39.92   13  336   23  42.8  55.2 1005.7 -9.9 -9.999  93.1 -99.99 -9.99
2019/10/16 18:30 EDT   39.96  40.00   18  349   28  43.0  55.2 1005.7 -9.9 -9.999  91.9 -99.99 -9.99
2019/10/16 18:36 EDT   40.00  40.04   15  337   27  42.6  55.2 1005.9 -9.9 -9.999  92.8 -99.99 -9.99
2019/10/16 18:42 EDT   39.80  39.84   17  342   27  42.4  55.2 1005.9 -9.9 -9.999  92.3 -99.99 -9.99
2019/10/16 18:48 EDT   39.72  39.76   17  346   25  42.4  55.2 1006.0 -9.9 -9.999  93.0 -99.99 -9.99
2019/10/16 18:54 EDT   39.88  39.92   19  342   26  42.3  55.2 1006.0 -9.9 -9.999  92.6 -99.99 -9.99
2019/10/16 19:00 EDT   40.31  40.35   18  339   28  42.1  55.2 1006.1 -9.9 -9.999  91.8 -99.99 -9.99
2019/10/16 19:06 EDT   40.59  40.59   19  342   27  42.1  55.2 1006.1 -9.9 -9.999  92.2 -99.99 -9.99
2019/10/16 19:12 EDT   40.47  40.51   17  341   25  42.1  55.2 1006.2 -9.9 -9.999  92.1 -99.99 -9.99
2019/10/16 19:18 EDT   40.43  40.47   19  345   26  42.3  55.2 1006.3 -9.9 -9.999  91.0 -99.99 -9.99
2019/10/16 19:24 EDT   40.31  40.35   17  349   26  42.4  55.2 1006.4 -9.9 -9.999  92.4 -99.99 -9.99
2019/10/16 19:30 EDT   40.31  40.35   15  346   22  42.4  55.2 1006.5 -9.9 -9.999  90.9 -99.99 -9.99
2019/10/16 19:36 EDT   40.35  40.39   15  342   28  42.6  55.2 1006.5 -9.9 -9.999  89.6 -99.99 -9.99
2019/10/16 19:42 EDT   40.59  40.63   19  343   28  42.6  55.2 1006.7 -9.9 -9.999  87.7 -99.99 -9.99
2019/10/16 19:48 EDT   40.79  40.83   17  345   24  42.6  55.2 1006.8 -9.9 -9.999  86.8 -99.99 -9.99
2019/10/16 19:54 EDT   40.91  40.94   19  345   25  42.6  55.2 1006.9 -9.9 -9.999  86.7 -99.99 -9.99
2019/10/16 20:00 EDT   41.14  41.18   13  338   25  42.6  55.2 1007.0 -9.9 -9.999  86.4 -99.99 -9.99
2019/10/16 20:06 EDT   41.34  41.38   19  343   24  42.8  55.0 1007.2 -9.9 -9.999  84.9 -99.99 -9.99
2019/10/16 20:12 EDT   41.42  41.46   19  344   27  43.0  55.0 1007.2 -9.9 -9.999  83.3 -99.99 -9.99
2019/10/16 20:18 EDT   41.26  41.30   20  346   28  43.0  55.0 1007.3 -9.9 -9.999  82.7 -99.99 -9.99
2019/10/16 20:24 EDT   41.06  41.06   19  342   24  43.0  55.0 1007.3 -9.9 -9.999  81.4 -99.99 -9.99
2019/10/16 20:30 EDT   40.94  41.02   15  343   26  42.8  55.0 1007.4 -9.9 -9.999  82.3 -99.99 -9.99
2019/10/16 20:36 EDT   41.02  41.06   20  346   26  43.2  55.0 1007.4 -9.9 -9.999  81.4 -99.99 -9.99
2019/10/16 20:42 EDT   41.22  41.26   18  346   23  43.2  55.0 1007.4 -9.9 -9.999  81.4 -99.99 -9.99
2019/10/16 20:48 EDT   41.46  41.46   18  345   25  43.2  55.0 1007.5 -9.9 -9.999  80.8 -99.99 -9.99
2019/10/16 20:54 EDT   41.69  41.73   17  341   24  43.2  55.0 1007.6 -9.9 -9.999  80.3 -99.99 -9.99
2019/10/16 21:00 EDT   41.69  41.73   14  344   28  43.2  54.9 1007.7 -9.9 -9.999  80.7 -99.99 -9.99
2019/10/16 21:06 EDT   41.61  41.65   14  337   23  43.0  54.9 1007.7 -9.9 -9.999  80.6 -99.99 -9.99
2019/10/16 21:12 EDT   41.81  41.85   16  342   25  43.2  54.9 1007.8 -9.9 -9.999  79.8 -99.99 -9.99
2019/10/16 21:18 EDT   41.93  41.97   17  343   26  43.0  54.9 1007.8 -9.9 -9.999  79.3 -99.99 -9.99
2019/10/16 21:24 EDT   41.89  41.93   19  346   25  42.8  54.9 1007.9 -9.9 -9.999  79.0 -99.99 -9.99
2019/10/16 21:30 EDT   41.61  41.65   14  341   25  42.8  54.9 1007.9 -9.9 -9.999  81.6 -99.99 -9.99
2019/10/16 21:36 EDT   41.50  41.57   11  334   24  42.6  54.9 1007.9 -9.9 -9.999  82.2 -99.99 -9.99
2019/10/16 21:42 EDT   41.89  41.93   17  345   24  42.8  54.9 1008.1 -9.9 -9.999  80.7 -99.99 -9.99
2019/10/16 21:48 EDT   41.77  41.81   15  336   25  42.4  54.9 1008.1 -9.9 -9.999  81.9 -99.99 -9.99
2019/10/16 21:54 EDT   42.17  42.20   16  342   22  42.3  54.7 1008.2 -9.9 -9.999  81.6 -99.99 -9.99
2019/10/16 22:00 EDT   42.20  42.24   17  337   25  42.3  54.7 1008.2 -9.9 -9.999  80.4 -99.99 -9.99
2019/10/16 22:06 EDT   42.32  42.36   15  340   25  42.3  54.7 1008.2 -9.9 -9.999  80.4 -99.99 -9.99
2019/10/16 22:12 EDT   42.32  42.36   13  339   20  42.3  54.7 1008.3 -9.9 -9.999  81.3 -99.99 -9.99
2019/10/16 22:18 EDT   42.36  42.40   11  333   22  42.3  54.7 1008.3 -9.9 -9.999  81.5 -99.99 -9.99
2019/10/16 22:24 EDT   42.32  42.36   13  347   21  42.3  54.7 1008.4 -9.9 -9.999  81.3 -99.99 -9.99
2019/10/16 22:30 EDT   42.32  42.36   12  341   22  42.1  54.7 1008.4 -9.9 -9.999  80.6 -99.99 -9.99
2019/10/16 22:36 EDT   42.36  42.40   14  340   24  42.1  54.7 1008.4 -9.9 -9.999  80.0 -99.99 -9.99
2019/10/16 22:42 EDT   42.40  42.44   14  337   25  42.1  54.7 1008.5 -9.9 -9.999  81.1 -99.99 -9.99
2019/10/16 22:48 EDT   42.56  42.60    9  333   25  41.9  54.7 1008.6 -9.9 -9.999  81.3 -99.99 -9.99
2019/10/16 22:54 EDT   42.60  42.60   12  337   20  41.9  54.7 1008.7 -9.9 -9.999  81.6 -99.99 -9.99
2019/10/16 23:00 EDT   42.48  42.52   11  334   23  41.7  54.7 1008.7 -9.9 -9.999  82.3 -99.99 -9.99
2019/10/16 23:06 EDT   42.56  42.56   11  335   19  41.7  54.7 1008.7 -9.9 -9.999  82.3 -99.99 -9.99
2019/10/16 23:12 EDT   42.52  42.52   13  334   22  41.9  54.5 1008.6 -9.9 -9.999  81.0 -99.99 -9.99
2019/10/16 23:18 EDT   42.44  42.48   14  334   22  41.7  54.7 1008.7 -9.9 -9.999  81.1 -99.99 -9.99
2019/10/16 23:24 EDT   42.40  42.40   15  340   23  41.7  54.7 1008.7 -9.9 -9.999  80.6 -99.99 -9.99
2019/10/16 23:30 EDT   42.17  42.20   13  340   23  41.9  54.7 1008.8 -9.9 -9.999  80.8 -99.99 -9.99
2019/10/16 23:36 EDT   41.97  42.01   13  346   24  42.1  54.7 1008.8 -9.9 -9.999  81.2 -99.99 -9.99
2019/10/16 23:42 EDT   41.97  42.01   14  336   22  41.9  54.7 1008.9 -9.9 -9.999  81.0 -99.99 -9.99
2019/10/16 23:48 EDT   41.69  41.73   14  335   22  41.7  54.7 1009.0 -9.9 -9.999  80.5 -99.99 -9.99
2019/10/16 23:54 EDT   41.89  41.93   13  334   22  41.7  54.5 1009.1 -9.9 -9.999  80.7 -99.99 -9.99
2019/10/17 00:00 EDT   41.85  41.89   11  340   24  41.9  54.5 1009.1 -9.9 -9.999  81.4 -99.99 -9.99
2019/10/17 00:06 EDT   41.89  41.93   11  338   18  41.7  54.5 1009.1 -9.9 -9.999  80.8 -99.99 -9.99
2019/10/17 00:12 EDT   41.65  41.69   15  335   22  41.9  54.5 1009.0 -9.9 -9.999  80.7 -99.99 -9.99
2019/10/17 00:18 EDT   41.46  41.50   11  332   23  41.9  54.5 1009.1 -9.9 -9.999  81.2 -99.99 -9.99
2019/10/17 00:24 EDT   41.30  41.34    8  339   20  41.9  54.5 1009.1 -9.9 -9.999  81.2 -99.99 -9.99
2019/10/17 00:30 EDT   41.22  41.26   12  341   20  41.7  54.5 1009.1 -9.9 -9.999  80.9 -99.99 -9.99
2019/10/17 00:36 EDT   41.10  41.14   13  336   23  41.5  54.5 1009.0 -9.9 -9.999  80.3 -99.99 -9.99
2019/10/17 00:42 EDT   41.22  41.26   11  339   20  41.4  54.7 1008.9 -9.9 -9.999  81.2 -99.99 -9.99
2019/10/17 00:48 EDT   41.42  41.42   13  341   19  41.4  54.7 1008.9 -9.9 -9.999  81.0 -99.99 -9.99
2019/10/17 00:54 EDT   41.34  41.38   11  333   23  41.4  54.7 1009.0 -9.9 -9.999  80.8 -99.99 -9.99
2019/10/17 01:00 EDT   41.38  41.42   13  335   23  41.4  54.7 1008.9 -9.9 -9.999  80.3 -99.99 -9.99
2019/10/17 01:06 EDT   41.38  41.42   13  332   21  41.2  54.7 1009.0 -9.9 -9.999  80.9 -99.99 -9.99
2019/10/17 01:12 EDT   41.30  41.34   10  342   17  41.4  54.7 1009.0 -9.9 -9.999  82.4 -99.99 -9.99
2019/10/17 01:18 EDT   41.18  41.22   16  340   21  41.4  54.7 1009.0 -9.9 -9.999  79.4 -99.99 -9.99
2019/10/17 01:24 EDT   41.06  41.14   14  338   24  41.2  54.7 1009.0 -9.9 -9.999  79.6 -99.99 -9.99
2019/10/17 01:30 EDT   41.06  41.10   14  339   21  41.2  54.7 1008.9 -9.9 -9.999  80.2 -99.99 -9.99
2019/10/17 01:36 EDT   41.18  41.22   15  346   21  41.2  54.7 1009.0 -9.9 -9.999  81.0 -99.99 -9.99
2019/10/17 01:42 EDT   41.34  41.38   14  338   21  41.2  54.7 1009.0 -9.9 -9.999  80.1 -99.99 -9.99
2019/10/17 01:48 EDT   41.42  41.46   13  340   22  41.0  54.7 1009.0 -9.9 -9.999  80.7 -99.99 -9.99
2019/10/17 01:54 EDT   41.46  41.50   13  336   22  41.0  54.7 1009.0 -9.9 -9.999  81.4 -99.99 -9.99
2019/10/17 02:00 EDT   41.42  41.46   15  341   23  41.2  54.7 1009.1 -9.9 -9.999  80.7 -99.99 -9.99
2019/10/17 02:06 EDT   41.50  41.54   14  342   21  41.2  54.7 1009.1 -9.9 -9.999  81.5 -99.99 -9.99
2019/10/17 02:12 EDT   41.18  41.22   15  343   22  41.0  54.7 1009.1 -9.9 -9.999  80.5 -99.99 -9.99
2019/10/17 02:18 EDT   41.61  41.65   14  340   22  41.0  54.5 1009.2 -9.9 -9.999  81.6 -99.99 -9.99
2019/10/17 02:24 EDT   41.89  41.93   12  347   21  40.8  54.5 1009.1 -9.9 -9.999  82.3 -99.99 -9.99
2019/10/17 02:30 EDT   41.89  41.93   13  342   22  40.8  54.5 1009.1 -9.9 -9.999  83.1 -99.99 -9.99
2019/10/17 02:36 EDT   41.89  41.93   13  348   19  40.6  54.5 1009.1 -9.9 -9.999  83.6 -99.99 -9.99
2019/10/17 02:42 EDT   42.01  42.05   13  346   21  40.5  54.5 1009.1 -9.9 -9.999  83.4 -99.99 -9.99
2019/10/17 02:48 EDT   42.24  42.28   11  341   18  40.3  54.5 1009.2 -9.9 -9.999  83.5 -99.99 -9.99
2019/10/17 02:54 EDT   42.24  42.28   10  336   17  40.3  54.5 1009.2 -9.9 -9.999  83.8 -99.99 -9.99
2019/10/17 03:00 EDT   42.32  42.36   11  339   16  40.1  54.3 1009.2 -9.9 -9.999  83.6 -99.99 -9.99
2019/10/17 03:06 EDT   42.64  42.64   12  341   18  40.3  54.3 1009.2 -9.9 -9.999  81.6 -99.99 -9.99
2019/10/17 03:12 EDT   42.83  42.83   12  342   18  40.5  54.3 1009.2 -9.9 -9.999  82.4 -99.99 -9.99
2019/10/17 03:18 EDT   42.95  42.95   11  342   17  40.5  54.3 1009.2 -9.9 -9.999  83.7 -99.99 -9.99
2019/10/17 03:24 EDT   43.19  43.23   10  336   17  40.5  54.1 1009.2 -9.9 -9.999  83.5 -99.99 -9.99
2019/10/17 03:30 EDT   43.23  43.27   14  340   20  40.6  54.1 1009.2 -9.9 -9.999  82.5 -99.99 -9.99
2019/10/17 03:36 EDT   43.15  43.19   11  342   19  40.5  54.1 1009.3 -9.9 -9.999  84.1 -99.99 -9.99
2019/10/17 03:42 EDT   43.35  43.39   11  334   16  40.3  54.1 1009.3 -9.9 -9.999  83.4 -99.99 -9.99
2019/10/17 03:48 EDT   43.74  43.74   12  339   18  40.3  54.1 1009.3 -9.9 -9.999  83.6 -99.99 -9.99
2019/10/17 03:54 EDT   44.02  44.02   12  345   19  40.5  54.0 1009.3 -9.9 -9.999  83.5 -99.99 -9.99
2019/10/17 04:00 EDT   44.02  44.06   13  343   19  40.3  54.0 1009.3 -9.9 -9.999  83.4 -99.99 -9.99
2019/10/17 04:06 EDT   44.21  44.21   14  338   20  40.3  54.0 1009.4 -9.9 -9.999  83.4 -99.99 -9.99
2019/10/17 04:12 EDT   44.41  44.45   11  336   18  40.1  54.0 1009.4 -9.9 -9.999  83.7 -99.99 -9.99
2019/10/17 04:18 EDT   44.45  44.45   11  343   18  40.3  53.8 1009.5 -9.9 -9.999  83.9 -99.99 -9.99
2019/10/17 04:24 EDT   44.49  44.53   10  342   21  40.3  53.8 1009.5 -9.9 -9.999  84.1 -99.99 -9.99
2019/10/17 04:30 EDT   44.53  44.57   14  336   20  40.3  53.8 1009.6 -9.9 -9.999  82.3 -99.99 -9.99
2019/10/17 04:36 EDT   44.53  44.57   10  333   22  40.1  53.8 1009.7 -9.9 -9.999  83.0 -99.99 -9.99
2019/10/17 04:42 EDT   44.57  44.57    9  329   15  40.1  53.8 1009.8 -9.9 -9.999  83.1 -99.99 -9.99
2019/10/17 04:48 EDT   44.65  44.69   12  339   16  40.1  53.8 1009.8 -9.9 -9.999  82.7 -99.99 -9.99
2019/10/17 04:54 EDT   44.69  44.72   11  334   17  40.1  53.8 1009.7 -9.9 -9.999  83.5 -99.99 -9.99
2019/10/17 05:00 EDT   44.84  44.84   10  337   14  40.1  53.6 1009.8 -9.9 -9.999  83.4 -99.99 -9.99
2019/10/17 05:06 EDT   45.00  45.04    8  327   13  39.9  53.6 1009.9 -9.9 -9.999  84.1 -99.99 -9.99
2019/10/17 05:12 EDT   45.00  45.04    9  335   18  39.9  53.6 1010.0 -9.9 -9.999  85.1 -99.99 -9.99
2019/10/17 05:18 EDT   45.20  45.20   13  339   18  40.1  53.6 1010.1 -9.9 -9.999  83.8 -99.99 -9.99
2019/10/17 05:24 EDT   45.24  45.28    9  338   17  40.1  53.6 1010.2 -9.9 -9.999  83.3 -99.99 -9.99
2019/10/17 05:30 EDT   45.16  45.20   11  345   17  40.1  53.6 1010.3 -9.9 -9.999  83.4 -99.99 -9.99
2019/10/17 05:36 EDT   45.28  45.31   10  342   19  39.9  53.6 1010.3 -9.9 -9.999  83.4 -99.99 -9.99
2019/10/17 05:42 EDT   45.31  45.35    7  339   16  39.7  53.6 1010.3 -9.9 -9.999  84.8 -99.99 -9.99
2019/10/17 05:48 EDT   45.35  45.39    8  336   15  39.6  53.6 1010.3 -9.9 -9.999  84.0 -99.99 -9.99
2019/10/17 05:54 EDT   45.12  45.16    9  329   17  39.6  53.6 1010.4 -9.9 -9.999  83.4 -99.99 -9.99
2019/10/17 06:00 EDT   45.47  45.55    9  333   18  39.6  53.6 1010.4 -9.9 -9.999  83.2 -99.99 -9.99
2019/10/17 06:06 EDT   45.55  45.67   11  338   17  39.7  53.6 1010.4 -9.9 -9.999  83.0 -99.99 -9.99
2019/10/17 06:12 EDT   45.71  45.87   10  338   19  39.6  53.4 1010.4 -9.9 -9.999  83.3 -99.99 -9.99
2019/10/17 06:18 EDT   45.67  45.79   11  340   15  39.6  53.4 1010.4 -9.9 -9.999  83.4 -99.99 -9.99
2019/10/17 06:24 EDT   45.59  45.67    8  340   17  39.6  53.4 1010.5 -9.9 -9.999  83.8 -99.99 -9.99
2019/10/17 06:30 EDT   45.59  45.71   10  343   17  39.6  53.4 1010.5 -9.9 -9.999  83.1 -99.99 -9.99
2019/10/17 06:36 EDT   45.63  45.75    9  338   18  39.6  53.4 1010.6 -9.9 -9.999  83.2 -99.99 -9.99
2019/10/17 06:42 EDT   45.63  45.71    9  330   14  39.6  53.4 1010.6 -9.9 -9.999  82.7 -99.99 -9.99
2019/10/17 06:48 EDT   45.55  45.63   11  338   16  39.6  53.4 1010.6 -9.9 -9.999  82.2 -99.99 -9.99
2019/10/17 06:54 EDT   45.51  45.59    9  331   17  39.6  53.4 1010.6 -9.9 -9.999  83.0 -99.99 -9.99
2019/10/17 07:00 EDT   45.55  45.63    9  338   17  39.7  53.4 1010.6 -9.9 -9.999  83.3 -99.99 -9.99
2019/10/17 07:06 EDT   45.59  45.67   11  342   18  39.7  53.4 1010.7 -9.9 -9.999  82.8 -99.99 -9.99
2019/10/17 07:12 EDT   45.63  45.75   15  344   18  39.9  53.4 1010.8 -9.9 -9.999  82.4 -99.99 -9.99
2019/10/17 07:18 EDT   45.63  45.75   15  343   19  39.9  53.4 1010.9 -9.9 -9.999  81.6 -99.99 -9.99
2019/10/17 07:24 EDT   45.51  45.59   11  338   17  39.7  53.4 1011.0 -9.9 -9.999  82.4 -99.99 -9.99
2019/10/17 07:30 EDT   45.35  45.39   13  343   20  39.7  53.4 1011.0 -9.9 -9.999  81.3 -99.99 -9.99
2019/10/17 07:36 EDT   45.31  45.35   12  344   18  39.9  53.4 1011.0 -9.9 -9.999  82.1 -99.99 -9.99
2019/10/17 07:42 EDT   45.39  45.43   15  341   19  39.9  53.4 1011.0 -9.9 -9.999  82.0 -99.99 -9.99
2019/10/17 07:48 EDT   45.35  45.39   11  338   20  39.7  53.6 1011.1 -9.9 -9.999  82.2 -99.99 -9.99
2019/10/17 07:54 EDT   45.39  45.47   12  339   18  39.7  53.6 1011.0 -9.9 -9.999  82.2 -99.99 -9.99
2019/10/17 08:00 EDT   45.43  45.51   13  342   19  39.7  53.6 1011.1 -9.9 -9.999  82.9 -99.99 -9.99
2019/10/17 08:06 EDT   45.35  45.39   14  339   19  39.6  53.6 1011.1 -9.9 -9.999  82.0 -99.99 -9.99
2019/10/17 08:12 EDT   45.31  45.35    8  328   17  39.6  53.6 1011.2 -9.9 -9.999  83.0 -99.99 -9.99
2019/10/17 08:18 EDT   45.35  45.39   10  340   16  39.7  53.6 1011.2 -9.9 -9.999  82.2 -99.99 -9.99
2019/10/17 08:24 EDT   45.24  45.28   10  340   17  39.7  53.6 1011.3 -9.9 -9.999  81.9 -99.99 -9.99
2019/10/17 08:30 EDT   45.39  45.47   14  340   18  40.1  53.6 1011.3 -9.9 -9.999  80.1 -99.99 -9.99
2019/10/17 08:36 EDT   45.47  45.55    9  340   16  40.1  53.6 1011.5 -9.9 -9.999  81.0 -99.99 -9.99
2019/10/17 08:42 EDT   45.55  45.63   10  340   16  40.3  53.6 1011.5 -9.9 -9.999  80.4 -99.99 -9.99
2019/10/17 08:48 EDT   45.71  45.87   11  335   17  40.3  53.6 1011.6 -9.9 -9.999  79.3 -99.99 -9.99
2019/10/17 08:54 EDT   45.79  45.94   11  336   16  40.5  53.6 1011.7 -9.9 -9.999  80.3 -99.99 -9.99
2019/10/17 09:00 EDT   45.59  45.67   11  339   17  40.5  53.6 1011.7 -9.9 -9.999  79.1 -99.99 -9.99
2019/10/17 09:06 EDT   45.83  46.02   11  340   17  40.6  53.6 1011.9 -9.9 -9.999  79.0 -99.99 -9.99
2019/10/17 09:12 EDT   45.87  46.02   13  348   17  40.8  53.6 1011.9 -9.9 -9.999  79.9 -99.99 -9.99
2019/10/17 09:18 EDT   45.87  46.06   12  337   17  40.6  53.6 1011.9 -9.9 -9.999  79.6 -99.99 -9.99
2019/10/17 09:24 EDT   45.94  46.18   11  335   16  40.8  53.6 1011.8 -9.9 -9.999  79.8 -99.99 -9.99
2019/10/17 09:30 EDT   46.18  46.50   10  335   15  40.8  53.6 1011.8 -9.9 -9.999  79.4 -99.99 -9.99
2019/10/17 09:36 EDT   46.50  46.54   11  346   18  40.8  53.6 1011.9 -9.9 -9.999  80.3 -99.99 -9.99
2019/10/17 09:42 EDT   46.65  46.69   13  339   19  40.6  53.4 1011.9 -9.9 -9.999  78.9 -99.99 -9.99
2019/10/17 09:48 EDT   46.73  46.77   14  349   18  40.8  53.4 1012.0 -9.9 -9.999  79.3 -99.99 -9.99
2019/10/17 09:54 EDT   46.50  46.54   13  353   17  41.0  53.4 1012.1 -9.9 -9.999  80.8 -99.99 -9.99
2019/10/17 10:00 EDT   46.77  46.81   11  341   17  41.0  53.4 1012.2 -9.9 -9.999  79.4 -99.99 -9.99
2019/10/17 10:06 EDT   46.97  47.05   12  340   17  40.8  53.4 1012.2 -9.9 -9.999  78.7 -99.99 -9.99
2019/10/17 10:12 EDT   47.01  47.05   12  345   17  40.8  53.4 1012.2 -9.9 -9.999  78.6 -99.99 -9.99
2019/10/17 10:18 EDT   47.09  47.13   12  347   17  40.8  53.4 1012.3 -9.9 -9.999  77.9 -99.99 -9.99
2019/10/17 10:24 EDT   47.32  47.32   14  349   17  41.0  53.4 1012.2 -9.9 -9.999  78.8 -99.99 -9.99
2019/10/17 10:30 EDT   47.28  47.32   14  339   19  40.8  53.4 1012.2 -9.9 -9.999  77.2 -99.99 -9.99
2019/10/17 10:36 EDT   47.28  47.32   12  340   19  41.0  53.4 1012.3 -9.9 -9.999  77.5 -99.99 -9.99
2019/10/17 10:42 EDT   47.36  47.36   12  355   19  41.5  53.2 1012.3 -9.9 -9.999  79.1 -99.99 -9.99
2019/10/17 10:48 EDT   47.48  47.56   14  354   18  41.4  53.2 1012.3 -9.9 -9.999  77.4 -99.99 -9.99
2019/10/17 10:54 EDT   47.44  47.52   13  351   18  41.5  53.2 1012.4 -9.9 -9.999  76.5 -99.99 -9.99
2019/10/17 11:00 EDT   47.52  47.56   13  350   17  41.9  53.2 1012.4 -9.9 -9.999  75.5 -99.99 -9.99
2019/10/17 11:06 EDT   47.60  47.64   11  350   13  41.7  53.2 1012.4 -9.9 -9.999  75.5 -99.99 -9.99
2019/10/17 11:12 EDT   47.52  47.60   14  350   18  41.9  53.2 1012.4 -9.9 -9.999  76.4 -99.99 -9.99
2019/10/17 11:18 EDT   47.64  47.68   12  341   19  42.1  53.2 1012.4 -9.9 -9.999  75.3 -99.99 -9.99
2019/10/17 11:24 EDT   47.60  47.64   13  341   19  41.9  53.2 1012.4 -9.9 -9.999  74.1 -99.99 -9.99
2019/10/17 11:30 EDT   47.56  47.60   11  355   17  42.4  53.2 1012.3 -9.9 -9.999  76.3 -99.99 -9.99
2019/10/17 11:36 EDT   47.28  47.32   13  353   17  42.3  53.2 1012.3 -9.9 -9.999  74.5 -99.99 -9.99
2019/10/17 11:42 EDT   47.09  47.13    9  332   16  43.2  53.2 1012.3 -9.9 -9.999  75.2 -99.99 -9.99
2019/10/17 11:48 EDT   47.28  47.32    9  342   16  43.2  53.2 1012.3 -9.9 -9.999  75.0 -99.99 -9.99
2019/10/17 11:54 EDT   47.05  47.09   14  332   18  42.6  53.2 1012.2 -9.9 -9.999  72.9 -99.99 -9.99
2019/10/17 12:00 EDT   47.32  47.36   10  334   20  43.2  53.2 1012.2 -9.9 -9.999  74.0 -99.99 -9.99
2019/10/17 12:06 EDT   47.52  47.56   12  339   16  43.2  53.2 1012.2 -9.9 -9.999  74.0 -99.99 -9.99
2019/10/17 12:12 EDT   47.28  47.32   12  351   16  43.5  53.2 1012.2 -9.9 -9.999  73.7 -99.99 -9.99
2019/10/17 12:18 EDT   47.32  47.36   10  320   18  43.5  53.2 1012.1 -9.9 -9.999  73.6 -99.99 -9.99
2019/10/17 12:24 EDT   47.05  47.09    9  320   17  43.5  53.2 1012.1 -9.9 -9.999  73.9 -99.99 -9.99
2019/10/17 12:30 EDT   47.13  47.17    7  326   14  43.7  53.2 1012.0 -9.9 -9.999  73.2 -99.99 -9.99
2019/10/17 12:36 EDT   47.05  47.13    9  325   16  43.5  53.4 1012.0 -9.9 -9.999  72.5 -99.99 -9.99
2019/10/17 12:42 EDT   46.89  46.93    9  341   16  43.7  53.4 1012.0 -9.9 -9.999  72.6 -99.99 -9.99
2019/10/17 12:48 EDT   46.89  46.93    8  331   15  44.1  53.4 1011.9 -9.9 -9.999  72.5 -99.99 -9.99
2019/10/17 12:54 EDT   47.13  47.17    9  330   15  44.2  53.4 1012.0 -9.9 -9.999  71.6 -99.99 -9.99
2019/10/17 13:00 EDT   47.20  47.24    8  330   13  44.4  53.4 1011.9 -9.9 -9.999  71.3 -99.99 -9.99
2019/10/17 13:06 EDT   47.05  47.09   10  314   15  44.6  53.4 1011.9 -9.9 -9.999  71.1 -99.99 -9.99
2019/10/17 13:12 EDT   46.97  47.01    5  317   13  44.8  53.4 1011.8 -9.9 -9.999  71.4 -99.99 -9.99
2019/10/17 13:18 EDT   46.77  46.85   11  337   16  44.8  53.4 1011.7 -9.9 -9.999  70.5 -99.99 -9.99
2019/10/17 13:24 EDT   46.65  46.69    9  325   15  44.8  53.4 1011.7 -9.9 -9.999  70.0 -99.99 -9.99
2019/10/17 13:30 EDT   46.85  46.89   10  333   14  45.1  53.4 1011.7 -9.9 -9.999  68.5 -99.99 -9.99
2019/10/17 13:36 EDT   46.93  46.97    8  318   17  45.7  53.4 1011.7 -9.9 -9.999  67.6 -99.99 -9.99
2019/10/17 13:42 EDT   46.73  46.77    8  332   14  45.9  53.4 1011.6 -9.9 -9.999  68.5 -99.99 -9.99
2019/10/17 13:48 EDT   46.65  46.73   11  348   16  45.7  53.4 1011.5 -9.9 -9.999  68.8 -99.99 -9.99
2019/10/17 13:54 EDT   46.54  46.57    8  322   16  46.0  53.4 1011.5 -9.9 -9.999  67.2 -99.99 -9.99
2019/10/17 14:00 EDT   46.57  46.65    9  321   16  46.2  53.4 1011.5 -9.9 -9.999  65.6 -99.99 -9.99
2019/10/17 14:06 EDT   46.57  46.65    9  316   15  46.4  53.4 1011.5 -9.9 -9.999  65.4 -99.99 -9.99
2019/10/17 14:12 EDT   46.77  46.85    9  327   18  46.8  53.4 1011.5 -9.9 -9.999  64.8 -99.99 -9.99
2019/10/17 14:18 EDT   46.69  46.73    8  330   16  47.1  53.4 1011.5 -9.9 -9.999  64.3 -99.99 -9.99
2019/10/17 14:24 EDT   46.42  46.50   10  323   18  47.3  53.4 1011.6 -9.9 -9.999  62.6 -99.99 -9.99
2019/10/17 14:30 EDT   46.81  46.89    9  339   15  47.5  53.4 1011.5 -9.9 -9.999  65.4 -99.99 -9.99
2019/10/17 14:36 EDT   46.57  46.65   13  345   18  46.6  53.4 1011.6 -9.9 -9.999  65.0 -99.99 -9.99
2019/10/17 14:42 EDT   46.57  46.65   10  335   15  47.1  53.4 1011.7 -9.9 -9.999  63.8 -99.99 -9.99
2019/10/17 14:48 EDT   46.65  46.73    9  318   17  46.8  53.4 1011.7 -9.9 -9.999  62.9 -99.99 -9.99
2019/10/17 14:54 EDT   46.54  46.61    6  337   16  46.9  53.4 1011.7 -9.9 -9.999  66.2 -99.99 -9.99
2019/10/17 15:00 EDT   46.50  46.57    6  327   12  47.1  53.4 1011.7 -9.9 -9.999  65.5 -99.99 -9.99
2019/10/17 15:06 EDT   47.05  47.09    9  332   16  46.8  53.4 1011.7 -9.9 -9.999  62.6 -99.99 -9.99
2019/10/17 15:12 EDT   47.20  47.24   10  326   16  46.6  53.4 1011.7 -9.9 -9.999  64.9 -99.99 -9.99
2019/10/17 15:18 EDT   47.13  47.17   10  340   17  46.6  53.4 1011.7 -9.9 -9.999  65.9 -99.99 -9.99
2019/10/17 15:24 EDT   47.01  47.05   10  338   16  46.8  53.4 1011.7 -9.9 -9.999  65.2 -99.99 -9.99
2019/10/17 15:30 EDT   47.17  47.24    7  335   13  47.1  53.4 1011.8 -9.9 -9.999  65.0 -99.99 -9.99
2019/10/17 15:36 EDT   47.17  47.24   13  345   18  46.4  53.4 1011.9 -9.9 -9.999  63.2 -99.99 -9.99
2019/10/17 15:42 EDT   47.52  47.56   12  345   17  46.8  53.4 1011.8 -9.9 -9.999  63.1 -99.99 -9.99
2019/10/17 15:48 EDT   47.56  47.60    7  321   17  46.9  53.4 1011.9 -9.9 -9.999  63.8 -99.99 -9.99
2019/10/17 15:54 EDT   47.60  47.68    8  336   14  46.9  53.4 1011.8 -9.9 -9.999  64.9 -99.99 -9.99
2019/10/17 16:00 EDT   47.60  47.64   12  353   16  46.6  53.4 1011.7 -9.9 -9.999  66.0 -99.99 -9.99
2019/10/17 16:06 EDT   47.80  47.83    8  335   15  47.5  53.4 1011.9 -9.9 -9.999  64.0 -99.99 -9.99
2019/10/17 16:12 EDT   47.95  47.99    7  336   14  47.3  53.4 1012.0 -9.9 -9.999  66.5 -99.99 -9.99
2019/10/17 16:18 EDT   47.91  47.95   10  339   15  46.4  53.2 1012.1 -9.9 -9.999  70.2 -99.99 -9.99
2019/10/17 16:24 EDT   47.87  47.95    6  332   11  46.4  53.2 1012.1 -9.9 -9.999  70.1 -99.99 -9.99
2019/10/17 16:30 EDT   48.03  48.07   11  340   16  46.8  53.2 1012.1 -9.9 -9.999  67.0 -99.99 -9.99
2019/10/17 16:36 EDT   48.15  48.19   11  335   17  46.4  53.2 1012.1 -9.9 -9.999  71.4 -99.99 -9.99
2019/10/17 16:42 EDT   48.07  48.11    8  331   18  45.9  53.2 1012.2 -9.9 -9.999  74.6 -99.99 -9.99
2019/10/17 16:48 EDT   47.95  47.99    8  332   12  45.9  53.2 1012.2 -9.9 -9.999  75.7 -99.99 -9.99
2019/10/17 16:54 EDT   48.35  48.39    9  322   13  45.9  53.2 1012.2 -9.9 -9.999  74.6 -99.99 -9.99
2019/10/17 17:00 EDT   48.27  48.31    8  338   13  45.5  53.2 1012.2 -9.9 -9.999  76.2 -99.99 -9.99
2019/10/17 17:06 EDT   48.03  48.07    6  324   13  45.3  53.2 1012.3 -9.9 -9.999  77.3 -99.99 -9.99
2019/10/17 17:12 EDT   48.07  48.15    9  307   16  45.3  53.2 1012.2 -9.9 -9.999  74.9 -99.99 -9.99
2019/10/17 17:18 EDT   48.11  48.15    7  314   13  46.0  53.2 1012.3 -9.9 -9.999  73.2 -99.99 -9.99
2019/10/17 17:24 EDT   48.43  48.46    8  337   15  46.4  53.2 1012.4 -9.9 -9.999  70.9 -99.99 -9.99
2019/10/17 17:30 EDT   48.70  48.74    6  325   14  46.2  53.2 1012.5 -9.9 -9.999  72.3 -99.99 -9.99
2019/10/17 17:36 EDT   48.46  48.50    8  327   14  45.3  53.2 1012.6 -9.9 -9.999  74.1 -99.99 -9.99
2019/10/17 17:42 EDT   48.50  48.54    4  328   13  45.1  53.2 1012.6 -9.9 -9.999  77.3 -99.99 -9.99
2019/10/17 17:48 EDT   48.39  48.46    6  316   11  45.0  53.2 1012.7 -9.9 -9.999  77.6 -99.99 -9.99
2019/10/17 17:54 EDT   48.35  48.39    7  319   12  45.1  53.2 1012.7 -9.9 -9.999  78.3 -99.99 -9.99
2019/10/17 18:00 EDT   48.46  48.50    8  316   14  45.0  53.2 1012.8 -9.9 -9.999  77.7 -99.99 -9.99
2019/10/17 18:06 EDT   48.54  48.62    7  321   11  45.0  53.2 1013.0 -9.9 -9.999  78.6 -99.99 -9.99
2019/10/17 18:12 EDT   48.35  48.39    6  307   11  44.6  53.2 1013.0 -9.9 -9.999  79.5 -99.99 -9.99
2019/10/17 18:18 EDT   48.50  48.54    7  313   13  44.2  53.2 1013.0 -9.9 -9.999  80.1 -99.99 -9.99
2019/10/17 18:24 EDT   48.62  48.66    7  320   13  44.1  53.2 1013.1 -9.9 -9.999  81.4 -99.99 -9.99
2019/10/17 18:30 EDT   48.58  48.62    5  312   14  43.9  53.2 1013.2 -9.9 -9.999  82.4 -99.99 -9.99
2019/10/17 18:36 EDT   48.70  48.74    6  313   15  43.9  53.2 1013.3 -9.9 -9.999  82.7 -99.99 -9.99
2019/10/17 18:42 EDT   48.78  48.82    8  318   12  44.1  53.2 1013.4 -9.9 -9.999  82.5 -99.99 -9.99
2019/10/17 18:48 EDT   48.43  48.46    7  309   12  44.1  53.2 1013.5 -9.9 -9.999  83.2 -99.99 -9.99
2019/10/17 18:54 EDT   48.43  48.46    5  315   13  44.1  53.2 1013.5 -9.9 -9.999  83.7 -99.99 -9.99
2019/10/17 19:00 EDT   48.46  48.50    5  316   11  44.1  53.2 1013.6 -9.9 -9.999  84.0 -99.99 -9.99
2019/10/17 19:06 EDT   48.31  48.35    6  308   12  44.1  53.2 1013.7 -9.9 -9.999  83.8 -99.99 -9.99
2019/10/17 19:12 EDT   48.39  48.43    6  314   10  44.1  53.2 1013.7 -9.9 -9.999  84.2 -99.99 -9.99
2019/10/17 19:18 EDT   48.58  48.62    6  320   10  44.2  53.2 1013.7 -9.9 -9.999  83.6 -99.99 -9.99
2019/10/17 19:24 EDT   48.54  48.58    6  330   13  44.4  53.2 1013.8 -9.9 -9.999  82.7 -99.99 -9.99
2019/10/17 19:30 EDT   48.43  48.46    9  337   13  44.6  53.2 1013.8 -9.9 -9.999  80.5 -99.99 -9.99
2019/10/17 19:36 EDT   48.43  48.46    7  333   11  44.4  53.2 1013.9 -9.9 -9.999  80.7 -99.99 -9.99
2019/10/17 19:42 EDT   48.31  48.35    7  317   11  44.1  53.2 1013.8 -9.9 -9.999  81.1 -99.99 -9.99
2019/10/17 19:48 EDT   48.23  48.27    7  324   11  43.9  53.2 1013.8 -9.9 -9.999  82.5 -99.99 -9.99
2019/10/17 19:54 EDT   48.23  48.27    6  315   11  43.7  53.2 1013.9 -9.9 -9.999  84.0 -99.99 -9.99
2019/10/17 20:00 EDT   48.03  48.11    8  323   11  43.7  53.2 1013.9 -9.9 -9.999  84.1 -99.99 -9.99
2019/10/17 20:06 EDT   48.15  48.19    7  315   14  43.5  53.2 1014.1 -9.9 -9.999  84.7 -99.99 -9.99
2019/10/17 20:12 EDT   48.23  48.27    7  315   13  43.5  53.2 1014.1 -9.9 -9.999  84.9 -99.99 -9.99
2019/10/17 20:18 EDT   48.11  48.15    6  324   10  43.3  53.2 1014.1 -9.9 -9.999  85.7 -99.99 -9.99
2019/10/17 20:24 EDT   48.03  48.11    5  322   12  43.5  53.2 1014.1 -9.9 -9.999  85.7 -99.99 -9.99
2019/10/17 20:30 EDT   48.03  48.07    6  326   13  43.7  53.2 1014.2 -9.9 -9.999  85.3 -99.99 -9.99
2019/10/17 20:36 EDT   47.91  47.99    7  329   12  43.7  53.2 1014.2 -9.9 -9.999  85.3 -99.99 -9.99
2019/10/17 20:42 EDT   47.80  47.83    8  332   15  44.1  53.2 1014.2 -9.9 -9.999  84.2 -99.99 -9.99
2019/10/17 20:48 EDT   47.91  47.99    9  338   14  44.2  53.2 1014.2 -9.9 -9.999  84.0 -99.99 -9.99
2019/10/17 20:54 EDT   47.87  47.91    9  335   13  44.2  53.2 1014.3 -9.9 -9.999  84.0 -99.99 -9.99
2019/10/17 21:00 EDT   47.80  47.83    8  341   14  44.1  53.2 1014.2 -9.9 -9.999  83.1 -99.99 -9.99
2019/10/17 21:06 EDT   47.68  47.76    8  338   17  44.1  53.2 1014.2 -9.9 -9.999  83.4 -99.99 -9.99
2019/10/17 21:12 EDT   47.87  47.91    8  339   12  44.1  53.2 1014.2 -9.9 -9.999  82.6 -99.99 -9.99
2019/10/17 21:18 EDT   47.68  47.72    9  349   14  44.2  53.2 1014.2 -9.9 -9.999  79.3 -99.99 -9.99
2019/10/17 21:24 EDT   47.64  47.72   11  352   13  44.2  53.2 1014.2 -9.9 -9.999  79.3 -99.99 -9.99
2019/10/17 21:30 EDT   47.68  47.76    8  350   16  44.2  53.2 1014.4 -9.9 -9.999  77.9 -99.99 -9.99
2019/10/17 21:36 EDT   47.76  47.80   11  359   15  44.4  53.2 1014.4 -9.9 -9.999  75.8 -99.99 -9.99
2019/10/17 21:42 EDT   47.80  47.83   10  359   14  44.2  53.2 1014.3 -9.9 -9.999  76.9 -99.99 -9.99
2019/10/17 21:48 EDT   47.83  47.87   13    5   16  44.1  53.2 1014.3 -9.9 -9.999  74.6 -99.99 -9.99
2019/10/17 21:54 EDT   47.68  47.72   14    6   16  43.9  53.2 1014.3 -9.9 -9.999  74.0 -99.99 -9.99
2019/10/17 22:00 EDT   47.64  47.72   14    4   17  43.7  53.2 1014.3 -9.9 -9.999  73.6 -99.99 -9.99
2019/10/17 22:06 EDT   47.83  47.91   14    5   17  43.7  53.2 1014.4 -9.9 -9.999  74.5 -99.99 -9.99
2019/10/17 22:12 EDT   47.95  47.99   13    1   15  43.9  53.2 1014.5 -9.9 -9.999  76.1 -99.99 -9.99
2019/10/17 22:18 EDT   48.11  48.15   14    3   15  43.7  53.2 1014.5 -9.9 -9.999  75.2 -99.99 -9.99
2019/10/17 22:24 EDT   48.19  48.23   12    7   15  43.7  53.2 1014.5 -9.9 -9.999  76.9 -99.99 -9.99
2019/10/17 22:30 EDT   48.07  48.11   15    8   16  43.3  53.2 1014.5 -9.9 -9.999  75.0 -99.99 -9.99
2019/10/17 22:36 EDT   48.23  48.27   14    5   17  43.3  53.2 1014.6 -9.9 -9.999  75.4 -99.99 -9.99
2019/10/17 22:42 EDT   48.27  48.35   13    4   16  43.3  53.2 1014.5 -9.9 -9.999  75.7 -99.99 -9.99
2019/10/17 22:48 EDT   48.35  48.43   13    4   16  43.3  53.2 1014.5 -9.9 -9.999  75.5 -99.99 -9.99
2019/10/17 22:54 EDT   48.31  48.39   13    4   16  43.5  53.2 1014.5 -9.9 -9.999  75.0 -99.99 -9.99
2019/10/17 23:00 EDT   48.50  48.54   12   11   16  43.5  53.2 1014.5 -9.9 -9.999  76.0 -99.99 -9.99
2019/10/17 23:06 EDT   48.39  48.46   14   16   16  43.5  53.2 1014.6 -9.9 -9.999  74.5 -99.99 -9.99
2019/10/17 23:12 EDT   48.50  48.58   15   13   18  43.2  53.2 1014.6 -9.9 -9.999  73.9 -99.99 -9.99
2019/10/17 23:18 EDT   48.54  48.58   14   13   17  43.5  53.2 1014.5 -9.9 -9.999  76.1 -99.99 -9.99
2019/10/17 23:24 EDT   48.70  48.74   14   21   17  43.3  53.2 1014.5 -9.9 -9.999  73.4 -99.99 -9.99
2019/10/17 23:30 EDT   48.70  48.74   15   23   18  43.2  53.1 1014.4 -9.9 -9.999  72.3 -99.99 -9.99
2019/10/17 23:36 EDT   48.78  48.86   14   23   16  43.2  53.2 1014.4 -9.9 -9.999  73.6 -99.99 -9.99
2019/10/17 23:42 EDT   48.86  48.94   12   28   15  43.3  53.2 1014.4 -9.9 -9.999  74.0 -99.99 -9.99
2019/10/17 23:48 EDT   48.94  48.98   11   25   15  43.5  53.1 1014.3 -9.9 -9.999  75.0 -99.99 -9.99
2019/10/17 23:54 EDT   48.78  48.82   11   32   13  43.3  53.1 1014.3 -9.9 -9.999  73.6 -99.99 -9.99
2019/10/18 00:00 EDT   48.82  48.86   11   28   15  43.2  53.1 1014.3 -9.9 -9.999  73.3 -99.99 -9.99
2019/10/18 00:06 EDT   48.98  49.06   11   29   13  43.2  53.1 1014.4 -9.9 -9.999  72.5 -99.99 -9.99
2019/10/18 00:12 EDT   49.02  49.06   11   28   14  43.2  53.1 1014.3 -9.9 -9.999  73.4 -99.99 -9.99
2019/10/18 00:18 EDT   49.17  49.25   11   15   13  43.2  53.1 1014.3 -9.9 -9.999  75.2 -99.99 -9.99
2019/10/18 00:24 EDT   49.21  49.25   11   19   13  43.2  53.1 1014.3 -9.9 -9.999  76.5 -99.99 -9.99
2019/10/18 00:30 EDT   49.17  49.21   11   23   13  43.2  53.1 1014.4 -9.9 -9.999  76.5 -99.99 -9.99
2019/10/18 00:36 EDT   49.13  49.17   12   26   14  43.0  53.1 1014.5 -9.9 -9.999  73.4 -99.99 -9.99
2019/10/18 00:42 EDT   49.33  49.37   12   21   14  43.0  53.1 1014.5 -9.9 -9.999  74.3 -99.99 -9.99
2019/10/18 00:48 EDT   49.33  49.37   12   24   15  42.8  53.1 1014.6 -9.9 -9.999  72.3 -99.99 -9.99
2019/10/18 00:54 EDT   49.21  49.25   11   30   14  43.0  53.1 1014.7 -9.9 -9.999  72.9 -99.99 -9.99
2019/10/18 01:00 EDT   49.29  49.33   13   18   14  42.8  53.1 1014.7 -9.9 -9.999  73.8 -99.99 -9.99
2019/10/18 01:06 EDT   49.25  49.29   11   24   14  43.0  53.1 1014.8 -9.9 -9.999  77.2 -99.99 -9.99
2019/10/18 01:12 EDT   49.29  49.33   11   16   15  42.6  53.1 1014.7 -9.9 -9.999  77.0 -99.99 -9.99
2019/10/18 01:18 EDT   49.37  49.41   12   16   15  42.4  53.1 1014.8 -9.9 -9.999  77.6 -99.99 -9.99
2019/10/18 01:24 EDT   49.45  49.49   11   17   14  42.4  53.1 1015.0 -9.9 -9.999  76.8 -99.99 -9.99
2019/10/18 01:30 EDT   49.49  49.53   11    9   14  42.3  53.1 1015.1 -9.9 -9.999  76.7 -99.99 -9.99
2019/10/18 01:36 EDT   49.37  49.41   11   17   14  42.1  53.1 1015.2 -9.9 -9.999  76.4 -99.99 -9.99
2019/10/18 01:42 EDT   49.17  49.21   11   13   14  41.9  53.1 1015.3 -9.9 -9.999  77.0 -99.99 -9.99
2019/10/18 01:48 EDT   49.13  49.17   11    9   14  41.7  53.1 1015.4 -9.9 -9.999  77.3 -99.99 -9.99
2019/10/18 01:54 EDT   48.98  49.02   10   11   13  41.7  53.1 1015.5 -9.9 -9.999  79.1 -99.99 -9.99
2019/10/18 02:00 EDT   48.98  49.06    9    9   12  41.7  53.1 1015.6 -9.9 -9.999  81.3 -99.99 -9.99
2019/10/18 02:06 EDT   49.09  49.13    4  324    9  39.6  53.1 1015.7 -9.9 -9.999  84.0 -99.99 -9.99
2019/10/18 02:12 EDT   48.74  48.78    4  324    6  39.0  53.1 1015.7 -9.9 -9.999  85.2 -99.99 -9.99
2019/10/18 02:18 EDT   48.74  48.82    4  324    6  38.7  53.1 1015.8 -9.9 -9.999  86.2 -99.99 -9.99
2019/10/18 02:24 EDT   48.66  48.74    5  314    6  38.5  53.1 1016.0 -9.9 -9.999  85.8 -99.99 -9.99
2019/10/18 02:30 EDT   48.46  48.54    5  322    7  38.3  53.1 1016.0 -9.9 -9.999  86.1 -99.99 -9.99
2019/10/18 02:36 EDT   48.50  48.54    4  318    7  38.3  53.1 1016.0 -9.9 -9.999  85.8 -99.99 -9.99
2019/10/18 02:42 EDT   48.54  48.62    5  324    7  38.1  53.1 1016.0 -9.9 -9.999  85.7 -99.99 -9.99
2019/10/18 02:48 EDT   47.99  48.03    4  327    7  38.3  53.1 1016.0 -9.9 -9.999  85.0 -99.99 -9.99
2019/10/18 02:54 EDT   48.54  48.58    4  321    6  38.1  53.1 1016.1 -9.9 -9.999  85.5 -99.99 -9.99
2019/10/18 03:00 EDT   48.31  48.35    4  336    7  38.3  53.1 1016.1 -9.9 -9.999  85.1 -99.99 -9.99
2019/10/18 03:06 EDT   48.31  48.35    4  335    7  38.5  53.1 1016.2 -9.9 -9.999  84.7 -99.99 -9.99
2019/10/18 03:12 EDT   48.35  48.43    5  338    8  38.8  53.1 1016.2 -9.9 -9.999  82.7 -99.99 -9.99
2019/10/18 03:18 EDT   48.07  48.11    4  330    8  38.5  53.1 1016.2 -9.9 -9.999  84.6 -99.99 -9.99
2019/10/18 03:24 EDT   48.15  48.19    5  332    9  38.5  53.1 1016.3 -9.9 -9.999  84.8 -99.99 -9.99
2019/10/18 03:30 EDT   48.39  48.46    5  343    9  38.7  53.1 1016.4 -9.9 -9.999  84.5 -99.99 -9.99
2019/10/18 03:36 EDT   48.31  48.35    7  343    8  38.7  53.1 1016.4 -9.9 -9.999  83.9 -99.99 -9.99
2019/10/18 03:42 EDT   48.23  48.31    7  344    9  38.8  53.1 1016.5 -9.9 -9.999  83.8 -99.99 -9.99
2019/10/18 03:48 EDT   48.35  48.39    6  343    9  39.0  53.1 1016.6 -9.9 -9.999  83.2 -99.99 -9.99
2019/10/18 03:54 EDT   48.27  48.35    5  340    8  38.7  53.1 1016.6 -9.9 -9.999  83.4 -99.99 -9.99
2019/10/18 04:00 EDT   48.31  48.35    5  337    8  38.3  53.1 1016.6 -9.9 -9.999  83.4 -99.99 -9.99
2019/10/18 04:06 EDT   48.27  48.35    7  335   10  38.3  53.1 1016.6 -9.9 -9.999  83.0 -99.99 -9.99
2019/10/18 04:12 EDT   48.31  48.35    6  335   10  38.3  53.1 1016.6 -9.9 -9.999  81.6 -99.99 -9.99
2019/10/18 04:18 EDT   48.39  48.43    5  359    8  38.7  53.1 1016.7 -9.9 -9.999  83.5 -99.99 -9.99
2019/10/18 04:24 EDT   48.39  48.46    8  354   10  38.8  53.1 1016.5 -9.9 -9.999  83.2 -99.99 -9.99
2019/10/18 04:30 EDT   48.46  48.50    7  358   11  39.0  53.1 1016.6 -9.9 -9.999  82.9 -99.99 -9.99
2019/10/18 04:36 EDT   48.54  48.58    9    7   11  39.0  53.1 1016.5 -9.9 -9.999  83.0 -99.99 -9.99
2019/10/18 04:42 EDT   48.66  48.74    9   13   12  39.0  53.1 1016.4 -9.9 -9.999  83.8 -99.99 -9.99
2019/10/18 04:48 EDT   48.58  48.66    9   13   12  39.4  53.1 1016.5 -9.9 -9.999  84.9 -99.99 -9.99
2019/10/18 04:54 EDT   48.58  48.62    8    6   10  39.0  53.2 1016.6 -9.9 -9.999  85.6 -99.99 -9.99
2019/10/18 05:00 EDT   48.66  48.70    8   22   10  39.6  53.2 1016.9 -9.9 -9.999  84.0 -99.99 -9.99
2019/10/18 05:06 EDT   48.78  48.82    9   18   11  39.4  53.1 1017.0 -9.9 -9.999  81.1 -99.99 -9.99
2019/10/18 05:12 EDT   48.90  48.94    9   12   12  39.6  53.2 1016.9 -9.9 -9.999  81.7 -99.99 -9.99
2019/10/18 05:18 EDT   48.78  48.82    9   24   12  39.7  53.2 1016.9 -9.9 -9.999  80.7 -99.99 -9.99
2019/10/18 05:24 EDT   48.82  48.86   10   16   12  39.6  53.1 1017.0 -9.9 -9.999  78.9 -99.99 -9.99
2019/10/18 05:30 EDT   49.02  49.06    8   28   12  39.4  53.1 1017.2 -9.9 -9.999  77.8 -99.99 -9.99
2019/10/18 05:36 EDT   49.25  49.29    9   18   10  39.7  53.1 1017.2 -9.9 -9.999  80.0 -99.99 -9.99
2019/10/18 05:42 EDT   49.45  49.49    9   27   11  39.4  53.1 1017.3 -9.9 -9.999  79.3 -99.99 -9.99
2019/10/18 05:48 EDT   49.33  49.37   10   19   13  39.2  53.1 1017.4 -9.9 -9.999  79.3 -99.99 -9.99
2019/10/18 05:54 EDT   49.25  49.29   11   19   12  39.6  53.1 1017.4 -9.9 -9.999  79.8 -99.99 -9.99
2019/10/18 06:00 EDT   49.17  49.25   10   14   12  38.8  53.1 1017.3 -9.9 -9.999  83.1 -99.99 -9.99
2019/10/18 06:06 EDT   49.41  49.49   10    6   12  38.8  53.1 1017.5 -9.9 -9.999  85.3 -99.99 -9.99
2019/10/18 06:12 EDT   49.57  49.61    9   10   11  39.0  53.1 1017.5 -9.9 -9.999  87.0 -99.99 -9.99
2019/10/18 06:18 EDT   49.49  49.53    9   22   12  39.2  53.1 1017.5 -9.9 -9.999  83.4 -99.99 -9.99
2019/10/18 06:24 EDT   49.53  49.57    9   22   11  39.0  53.1 1017.7 -9.9 -9.999  79.7 -99.99 -9.99
2019/10/18 06:30 EDT   49.61  49.65    8   20   11  39.2  53.1 1017.7 -9.9 -9.999  82.2 -99.99 -9.99
2019/10/18 06:36 EDT   49.65  49.69   10   22   12  39.2  53.1 1017.8 -9.9 -9.999  81.7 -99.99 -9.99
2019/10/18 06:42 EDT   49.76  49.80    9   18   11  39.0  53.1 1017.8 -9.9 -9.999  79.0 -99.99 -9.99
2019/10/18 06:48 EDT   49.61  49.65    8   18   12  39.2  53.1 1017.9 -9.9 -9.999  82.5 -99.99 -9.99
2019/10/18 06:54 EDT   49.57  49.61    9   26   11  39.0  53.1 1017.8 -9.9 -9.999  81.2 -99.99 -9.99
2019/10/18 07:00 EDT   49.33  49.37    9   23   11  39.2  53.1 1017.8 -9.9 -9.999  80.6 -99.99 -9.99
2019/10/18 07:06 EDT   49.45  49.49    8   35   10  39.2  53.1 1017.9 -9.9 -9.999  81.6 -99.99 -9.99
2019/10/18 07:12 EDT   49.57  49.61    9   47   11  38.7  53.1 1017.9 -9.9 -9.999  78.4 -99.99 -9.99
2019/10/18 07:18 EDT   49.57  49.61    7   42   10  39.4  53.1 1018.0 -9.9 -9.999  79.5 -99.99 -9.99
2019/10/18 07:24 EDT   49.61  49.65    7   41    9  39.0  53.1 1018.0 -9.9 -9.999  78.0 -99.99 -9.99
2019/10/18 07:30 EDT   49.45  49.49    7   47    9  39.2  53.1 1018.0 -9.9 -9.999  78.5 -99.99 -9.99
2019/10/18 07:36 EDT   49.53  49.57    7   49   10  39.2  53.1 1018.0 -9.9 -9.999  78.6 -99.99 -9.99
2019/10/18 07:42 EDT   49.49  49.53    7   45   10  39.2  53.1 1018.0 -9.9 -9.999  78.4 -99.99 -9.99
2019/10/18 07:48 EDT   49.29  49.33    8   43   11  39.2  53.1 1018.0 -9.9 -9.999  78.5 -99.99 -9.99
2019/10/18 07:54 EDT   49.17  49.21    7   42    9  39.2  53.1 1017.9 -9.9 -9.999  78.7 -99.99 -9.99
2019/10/18 08:00 EDT   49.33  49.41    7   40   10  39.0  53.1 1017.8 -9.9 -9.999  78.3 -99.99 -9.99
2019/10/18 08:06 EDT   49.21  49.25    8   52   11  38.8  53.1 1017.9 -9.9 -9.999  77.8 -99.99 -9.99
2019/10/18 08:12 EDT   48.86  48.90    7   48   11  39.2  53.1 1017.9 -9.9 -9.999  79.5 -99.99 -9.99
2019/10/18 08:18 EDT   49.09  49.13    7   65   11  39.0  53.1 1017.8 -9.9 -9.999  81.3 -99.99 -9.99
2019/10/18 08:24 EDT   48.98  49.02    7   52    9  39.0  53.1 1017.9 -9.9 -9.999  79.7 -99.99 -9.99
2019/10/18 08:30 EDT   48.90  48.98    7   70    9  39.0  53.1 1017.9 -9.9 -9.999  81.6 -99.99 -9.99
2019/10/18 08:36 EDT   48.98  49.06    7   79    8  38.7  53.1 1018.0 -9.9 -9.999  82.8 -99.99 -9.99
2019/10/18 08:42 EDT   48.86  48.90    6   87    8  38.7  53.1 1018.0 -9.9 -9.999  83.2 -99.99 -9.99
2019/10/18 08:48 EDT   48.90  48.98    6   74    8  38.7  52.9 1018.1 -9.9 -9.999  83.3 -99.99 -9.99
2019/10/18 08:54 EDT   48.94  48.98    6   76    8  38.8  53.1 1018.2 -9.9 -9.999  83.2 -99.99 -9.99
2019/10/18 09:00 EDT   48.74  48.78    7   74    8  38.8  53.1 1018.2 -9.9 -9.999  82.1 -99.99 -9.99
2019/10/18 09:06 EDT   48.43  48.50    6   68    8  39.2  53.1 1018.3 -9.9 -9.999  83.3 -99.99 -9.99
2019/10/18 09:12 EDT   48.70  48.78    7   72    8  38.8  53.1 1018.3 -9.9 -9.999  82.9 -99.99 -9.99
2019/10/18 09:18 EDT   48.74  48.78    7   70    8  38.7  53.1 1018.4 -9.9 -9.999  81.1 -99.99 -9.99
2019/10/18 09:24 EDT   48.74  48.78    7   76    8  38.8  53.1 1018.4 -9.9 -9.999  81.8 -99.99 -9.99
2019/10/18 09:30 EDT   48.70  48.74    7   73    9  39.0  53.1 1018.3 -9.9 -9.999  81.3 -99.99 -9.99
2019/10/18 09:36 EDT   48.66  48.70    8   70    9  39.0  53.1 1018.3 -9.9 -9.999  81.3 -99.99 -9.99
2019/10/18 09:42 EDT   48.74  48.78    7   75    9  39.4  53.1 1018.3 -9.9 -9.999  83.2 -99.99 -9.99
2019/10/18 09:48 EDT   48.66  48.70    6   84    9  39.4  53.1 1018.4 -9.9 -9.999  81.1 -99.99 -9.99
2019/10/18 09:54 EDT   48.66  48.74    6   79    8  39.6  53.1 1018.5 -9.9 -9.999  80.7 -99.99 -9.99
2019/10/18 10:00 EDT   48.58  48.66    6   88    8  39.7  53.1 1018.5 -9.9 -9.999  78.8 -99.99 -9.99
2019/10/18 10:06 EDT   48.66  48.74    7   67    8  39.6  53.1 1018.5 -9.9 -9.999  79.8 -99.99 -9.99
2019/10/18 10:12 EDT   48.82  48.86    3   70    7  40.1  53.1 1018.6 -9.9 -9.999  78.8 -99.99 -9.99
2019/10/18 10:18 EDT   48.86  48.90    5   65    6  39.7  53.1 1018.7 -9.9 -9.999  78.0 -99.99 -9.99
2019/10/18 10:24 EDT   48.82  48.86    4   43    5  39.9  53.1 1018.6 -9.9 -9.999  78.9 -99.99 -9.99
2019/10/18 10:30 EDT   48.70  48.78    4   52    6  39.9  53.1 1018.6 -9.9 -9.999  79.1 -99.99 -9.99
2019/10/18 10:36 EDT   48.35  48.43    5   32    7  39.7  53.1 1018.6 -9.9 -9.999  78.1 -99.99 -9.99
2019/10/18 10:42 EDT   48.62  48.66    4   35    7  39.6  53.1 1018.5 -9.9 -9.999  77.8 -99.99 -9.99
2019/10/18 10:48 EDT   48.58  48.62    4   43    6  39.7  53.1 1018.5 -9.9 -9.999  78.7 -99.99 -9.99
2019/10/18 10:54 EDT   48.54  48.58    4   52    6  39.7  53.1 1018.4 -9.9 -9.999  77.8 -99.99 -9.99
2019/10/18 11:00 EDT   48.78  48.82    4   40    5  39.7  53.1 1018.4 -9.9 -9.999  77.8 -99.99 -9.99
2019/10/18 11:06 EDT   48.94  48.98    4   56    5  40.1  53.1 1018.5 -9.9 -9.999  77.3 -99.99 -9.99
2019/10/18 11:12 EDT   48.78  48.82    3   43    5  39.9  53.1 1018.5 -9.9 -9.999  76.2 -99.99 -9.99
2019/10/18 11:18 EDT   48.86  48.90    4   26    6  39.9  53.1 1018.6 -9.9 -9.999  77.2 -99.99 -9.99
2019/10/18 11:24 EDT   48.90  48.94    3   25    4  40.1  53.1 1018.6 -9.9 -9.999  75.9 -99.99 -9.99
2019/10/18 11:30 EDT   48.78  48.82    4   22    6  40.1  53.1 1018.5 -9.9 -9.999  77.6 -99.99 -9.99
2019/10/18 11:36 EDT   48.94  48.98    4   10    7  40.1  53.1 1018.5 -9.9 -9.999  77.2 -99.99 -9.99
2019/10/18 11:42 EDT   48.94  49.02    5    9    6  39.9  53.1 1018.5 -9.9 -9.999  76.8 -99.99 -9.99
2019/10/18 11:48 EDT   48.98  49.02    4    7    7  40.3  53.1 1018.5 -9.9 -9.999  78.6 -99.99 -9.99
2019/10/18 11:54 EDT   49.02  49.09    4   20    5  40.1  53.1 1018.3 -9.9 -9.999  76.8 -99.99 -9.99
2019/10/18 12:00 EDT   48.94  48.98    4   10    6  40.1  53.1 1018.0 -9.9 -9.999  77.6 -99.99 -9.99
2019/10/18 12:06 EDT   48.86  48.90    3   40    5  40.3  53.1 1018.1 -9.9 -9.999  77.5 -99.99 -9.99
2019/10/18 12:12 EDT   48.86  48.90    4   21    4  40.5  53.1 1018.1 -9.9 -9.999  77.3 -99.99 -9.99
2019/10/18 12:18 EDT   49.13  49.21    3   25    6  40.6  53.1 1018.1 -9.9 -9.999  76.9 -99.99 -9.99
2019/10/18 12:24 EDT   49.21  49.29    3   37    5  40.5  53.1 1017.9 -9.9 -9.999  76.6 -99.99 -9.99
2019/10/18 12:30 EDT   48.94  48.98    3   45    5  40.8  53.1 1018.0 -9.9 -9.999  78.0 -99.99 -9.99
2019/10/18 12:36 EDT   48.86  48.90    4   28    6  40.5  53.1 1018.0 -9.9 -9.999  76.2 -99.99 -9.99
2019/10/18 12:42 EDT   49.02  49.06    4   53    5  40.6  53.1 1017.8 -9.9 -9.999  76.8 -99.99 -9.99
2019/10/18 12:48 EDT   48.86  48.90    2   41    5  40.6  53.1 1017.8 -9.9 -9.999  76.8 -99.99 -9.99
2019/10/18 12:54 EDT   49.02  49.09    3   30    4  40.8  53.1 1017.8 -9.9 -9.999  76.5 -99.99 -9.99
2019/10/18 13:00 EDT   49.13  49.17    3   32    4  41.0  53.1 1017.7 -9.9 -9.999  76.0 -99.99 -9.99
2019/10/18 13:06 EDT   48.94  48.98    3   36    4  41.2  53.1 1017.8 -9.9 -9.999  74.1 -99.99 -9.99
2019/10/18 13:12 EDT   49.09  49.13    4   12    5  41.2  53.1 1017.8 -9.9 -9.999  74.2 -99.99 -9.99
2019/10/18 13:18 EDT   49.06  49.09    4   24    6  41.4  53.1 1017.7 -9.9 -9.999  74.8 -99.99 -9.99
2019/10/18 13:24 EDT   49.09  49.13    4   36    6  41.4  53.1 1017.7 -9.9 -9.999  75.9 -99.99 -9.99
2019/10/18 13:30 EDT   49.06  49.09    2   57    5  41.7  53.1 1017.5 -9.9 -9.999  73.9 -99.99 -9.99
2019/10/18 13:36 EDT   48.86  48.90    2   35    4  42.1  53.1 1017.4 -9.9 -9.999  74.1 -99.99 -9.99
2019/10/18 13:42 EDT   48.86  48.90    2   64    3  42.3  53.1 1017.4 -9.9 -9.999  73.4 -99.99 -9.99
2019/10/18 13:48 EDT   48.94  48.98    1  112    2  42.8  53.1 1017.5 -9.9 -9.999  72.4 -99.99 -9.99
2019/10/18 13:54 EDT   48.86  48.90    3  179    4  43.2  53.1 1017.4 -9.9 -9.999  72.8 -99.99 -9.99
2019/10/18 14:00 EDT   48.98  49.06    4  176    4  42.8  53.1 1017.3 -9.9 -9.999  73.6 -99.99 -9.99
2019/10/18 14:06 EDT   48.94  49.02    3  166    5  43.3  53.1 1017.3 -9.9 -9.999  73.6 -99.99 -9.99
2019/10/18 14:12 EDT   48.62  48.70    5  160    6  42.8  53.1 1017.2 -9.9 -9.999  75.0 -99.99 -9.99
2019/10/18 14:18 EDT   48.62  48.66    5  177    7  42.8  53.1 1017.2 -9.9 -9.999  75.9 -99.99 -9.99
2019/10/18 14:24 EDT   48.74  48.78    6  182    8  42.6  53.1 1017.1 -9.9 -9.999  75.2 -99.99 -9.99
2019/10/18 14:30 EDT   48.78  48.82    8  176    9  42.8  53.1 1017.0 -9.9 -9.999  76.0 -99.99 -9.99
2019/10/18 14:36 EDT   48.82  48.86    6  181    8  42.6  53.1 1017.0 -9.9 -9.999  75.4 -99.99 -9.99
2019/10/18 14:42 EDT   48.66  48.70    6  179    7  43.2  53.1 1016.8 -9.9 -9.999  75.4 -99.99 -9.99
2019/10/18 14:48 EDT   48.58  48.66    6  187    8  43.2  53.1 1016.9 -9.9 -9.999  74.1 -99.99 -9.99
2019/10/18 14:54 EDT   48.74  48.78    6  182    7  43.0  53.1 1016.8 -9.9 -9.999  74.7 -99.99 -9.99
2019/10/18 15:00 EDT   48.43  48.46    7  178    8  43.0  53.1 1016.7 -9.9 -9.999  73.4 -99.99 -9.99
2019/10/18 15:06 EDT   48.90  48.98    7  180    8  43.3  53.1 1016.6 -9.9 -9.999  73.6 -99.99 -9.99
2019/10/18 15:12 EDT   48.58  48.62    6  185    7  43.5  53.1 1016.6 -9.9 -9.999  69.6 -99.99 -9.99
2019/10/18 15:18 EDT   48.39  48.43    7  175    8  43.5  53.1 1016.4 -9.9 -9.999  73.5 -99.99 -9.99
2019/10/18 15:24 EDT   48.58  48.66    5  193    7  43.9  53.1 1016.3 -9.9 -9.999  73.0 -99.99 -9.99
2019/10/18 15:30 EDT   48.27  48.31    5  176    7  43.7  53.1 1016.4 -9.9 -9.999  74.2 -99.99 -9.99
2019/10/18 15:36 EDT   48.66  48.70    6  176    7  44.1  53.1 1016.4 -9.9 -9.999  74.6 -99.99 -9.99
2019/10/18 15:42 EDT   48.50  48.54    5  188    8  44.1  53.1 1016.4 -9.9 -9.999  74.0 -99.99 -9.99
2019/10/18 15:48 EDT   48.66  48.70    7  177    8  43.7  53.1 1016.3 -9.9 -9.999  74.3 -99.99 -9.99
2019/10/18 15:54 EDT   48.15  48.19    6  185    8  43.9  53.1 1016.1 -9.9 -9.999  74.3 -99.99 -9.99
2019/10/18 16:00 EDT   48.39  48.46    6  185    7  44.1  53.1 1016.1 -9.9 -9.999  74.4 -99.99 -9.99
2019/10/18 16:06 EDT   48.58  48.62    6  179    7  43.9  53.1 1016.0 -9.9 -9.999  73.9 -99.99 -9.99
2019/10/18 16:12 EDT   48.39  48.43    5  183    8  44.4  53.1 1016.0 -9.9 -9.999  74.8 -99.99 -9.99
2019/10/18 16:18 EDT   48.62  48.66    6  180    7  44.2  53.1 1016.0 -9.9 -9.999  75.0 -99.99 -9.99
2019/10/18 16:24 EDT   48.39  48.43    5  177    8  44.2  53.1 1016.0 -9.9 -9.999  74.0 -99.99 -9.99
2019/10/18 16:30 EDT   48.23  48.27    5  181    6  44.2  53.1 1015.9 -9.9 -9.999  74.3 -99.99 -9.99
2019/10/18 16:36 EDT   48.19  48.23    4  177    6  44.6  53.1 1015.9 -9.9 -9.999  73.9 -99.99 -9.99
2019/10/18 16:42 EDT   48.19  48.23    4  158    5  45.1  53.1 1015.8 -9.9 -9.999  74.0 -99.99 -9.99
2019/10/18 16:48 EDT   48.15  48.19    4  159    6  45.0  53.1 1015.9 -9.9 -9.999  74.1 -99.99 -9.99
2019/10/18 16:54 EDT   48.03  48.07    3  159    5  44.8  53.1 1015.8 -9.9 -9.999  73.1 -99.99 -9.99
2019/10/18 17:00 EDT   48.35  48.43    5  183    6  44.8  53.1 1015.9 -9.9 -9.999  73.1 -99.99 -9.99
2019/10/18 17:06 EDT   47.99  48.03    5  172    6  44.8  53.1 1015.9 -9.9 -9.999  74.0 -99.99 -9.99
2019/10/18 17:12 EDT   48.07  48.11    5  169    6  45.0  53.1 1015.9 -9.9 -9.999  74.7 -99.99 -9.99
2019/10/18 17:18 EDT   48.27  48.31    4  172    6  45.1  53.1 1015.8 -9.9 -9.999  75.0 -99.99 -9.99
2019/10/18 17:24 EDT   47.99  48.03    4  154    5  45.0  53.1 1015.8 -9.9 -9.999  74.7 -99.99 -9.99
2019/10/18 17:30 EDT   48.19  48.23    4  158    5  45.1  53.1 1015.8 -9.9 -9.999  73.6 -99.99 -9.99
2019/10/18 17:36 EDT   48.07  48.11    4  181    6  45.1  53.1 1015.8 -9.9 -9.999  73.7 -99.99 -9.99
2019/10/18 17:42 EDT   47.95  47.99    4  179    5  45.0  53.1 1015.8 -9.9 -9.999  73.9 -99.99 -9.99
2019/10/18 17:48 EDT   48.27  48.31    4  174    5  45.1  53.1 1015.7 -9.9 -9.999  73.2 -99.99 -9.99
2019/10/18 17:54 EDT   48.43  48.46    4  140    6  45.5  53.1 1015.7 -9.9 -9.999  74.7 -99.99 -9.99
2019/10/18 18:00 EDT   48.27  48.31    4  136    5  45.9  53.1 1015.7 -9.9 -9.999  74.6 -99.99 -9.99
2019/10/18 18:06 EDT   48.19  48.23    5  140    6  45.9  53.1 1015.6 -9.9 -9.999  75.5 -99.99 -9.99
2019/10/18 18:12 EDT   48.27  48.31    4  133    6  45.5  53.1 1015.6 -9.9 -9.999  74.2 -99.99 -9.99
2019/10/18 18:18 EDT   48.19  48.27    6  138    7  45.7  53.1 1015.5 -9.9 -9.999  78.5 -99.99 -9.99
2019/10/18 18:24 EDT   48.31  48.35    5  129    7  45.3  53.1 1015.4 -9.9 -9.999  78.2 -99.99 -9.99
2019/10/18 18:30 EDT   48.62  48.66    5  128    7  45.7  53.1 1015.4 -9.9 -9.999  77.3 -99.99 -9.99
2019/10/18 18:36 EDT   48.27  48.31    5  129    7  45.7  53.1 1015.4 -9.9 -9.999  78.1 -99.99 -9.99
2019/10/18 18:42 EDT   48.43  48.50    5  128    7  45.0  53.1 1015.5 -9.9 -9.999  79.7 -99.99 -9.99
2019/10/18 18:48 EDT   48.50  48.54    5  131    7  44.8  53.1 1015.4 -9.9 -9.999  80.8 -99.99 -9.99
2019/10/18 18:54 EDT   48.23  48.27    6  122    7  44.4  53.1 1015.4 -9.9 -9.999  81.6 -99.99 -9.99
2019/10/18 19:00 EDT   48.50  48.54    6  132    7  44.8  53.1 1015.5 -9.9 -9.999  82.2 -99.99 -9.99
2019/10/18 19:06 EDT   48.62  48.70    7  130    8  44.4  53.1 1015.5 -9.9 -9.999  82.1 -99.99 -9.99
2019/10/18 19:12 EDT   48.54  48.58    6  134    8  44.4  53.1 1015.4 -9.9 -9.999  83.3 -99.99 -9.99
2019/10/18 19:18 EDT   48.54  48.58    6  127    7  44.1  53.1 1015.4 -9.9 -9.999  83.5 -99.99 -9.99
2019/10/18 19:24 EDT   48.46  48.50    5  130    7  44.4  53.1 1015.5 -9.9 -9.999  84.6 -99.99 -9.99
2019/10/18 19:30 EDT   48.54  48.62    6  132    7  44.8  53.1 1015.5 -9.9 -9.999  83.4 -99.99 -9.99
2019/10/18 19:36 EDT   48.94  49.02    6  128    8  44.6  53.1 1015.5 -9.9 -9.999  82.2 -99.99 -9.99
2019/10/18 19:42 EDT   48.46  48.50    7  129    9  44.2  53.1 1015.5 -9.9 -9.999  83.1 -99.99 -9.99
2019/10/18 19:48 EDT   48.46  48.50    7  132    9  44.2  53.1 1015.6 -9.9 -9.999  82.7 -99.99 -9.99
2019/10/18 19:54 EDT   48.58  48.62    6  128    8  44.2  53.1 1015.6 -9.9 -9.999  84.2 -99.99 -9.99
2019/10/18 20:00 EDT   48.70  48.74    6  128    7  44.2  53.1 1015.6 -9.9 -9.999  84.1 -99.99 -9.99
2019/10/18 20:06 EDT   48.94  48.98    5  131    7  44.2  53.1 1015.7 -9.9 -9.999  84.0 -99.99 -9.99
2019/10/18 20:12 EDT   48.94  48.98    6  123    7  44.1  53.1 1015.7 -9.9 -9.999  84.7 -99.99 -9.99
2019/10/18 20:18 EDT   48.70  48.74    6  123    7  44.1  53.1 1015.6 -9.9 -9.999  85.6 -99.99 -9.99
2019/10/18 20:24 EDT   48.66  48.70    5  123    7  44.1  53.1 1015.6 -9.9 -9.999  86.9 -99.99 -9.99
2019/10/18 20:30 EDT   48.70  48.74    5  132    8  44.2  53.1 1015.6 -9.9 -9.999  87.4 -99.99 -9.99
2019/10/18 20:36 EDT   48.50  48.54    6  127    7  44.4  53.1 1015.5 -9.9 -9.999  87.0 -99.99 -9.99
2019/10/18 20:42 EDT   48.54  48.62    6  127    8  44.4  53.1 1015.4 -9.9 -9.999  86.8 -99.99 -9.99
2019/10/18 20:48 EDT   48.66  48.70    7  130    8  44.8  53.1 1015.4 -9.9 -9.999  87.9 -99.99 -9.99
2019/10/18 20:54 EDT   48.70  48.74    6  138    9  45.1  53.1 1015.4 -9.9 -9.999  88.5 -99.99 -9.99
2019/10/18 21:00 EDT   48.98  49.02    9  149   12  46.4  53.1 1015.4 -9.9 -9.999  85.8 -99.99 -9.99
2019/10/18 21:06 EDT   48.94  48.98    9  147   12  46.4  53.1 1015.3 -9.9 -9.999  85.9 -99.99 -9.99
2019/10/18 21:12 EDT   48.54  48.58   11  148   13  46.4  53.1 1015.3 -9.9 -9.999  85.6 -99.99 -9.99
2019/10/18 21:18 EDT   48.54  48.58   10  150   13  46.4  53.1 1015.4 -9.9 -9.999  85.9 -99.99 -9.99
2019/10/18 21:24 EDT   48.54  48.62   13  153   15  46.4  53.1 1015.2 -9.9 -9.999  83.6 -99.99 -9.99
2019/10/18 21:30 EDT   48.66  48.70   12  149   14  46.4  53.1 1015.2 -9.9 -9.999  84.3 -99.99 -9.99
2019/10/18 21:36 EDT   48.70  48.74   12  153   15  46.4  53.1 1015.2 -9.9 -9.999  85.2 -99.99 -9.99
2019/10/18 21:42 EDT   48.78  48.82   12  151   15  46.6  53.1 1015.3 -9.9 -9.999  84.3 -99.99 -9.99
2019/10/18 21:48 EDT   48.94  49.02   12  155   15  46.6  53.1 1015.3 -9.9 -9.999  85.1 -99.99 -9.99
2019/10/18 21:54 EDT   48.78  48.82   12  149   14  46.4  53.1 1015.3 -9.9 -9.999  85.0 -99.99 -9.99
2019/10/18 22:00 EDT   48.90  48.94   11  156   15  46.6  53.1 1015.3 -9.9 -9.999  85.3 -99.99 -9.99
2019/10/18 22:06 EDT   48.82  48.86   11  151   14  46.4  53.1 1015.3 -9.9 -9.999  85.2 -99.99 -9.99
2019/10/18 22:12 EDT   48.66  48.74   11  151   15  46.6  53.1 1015.3 -9.9 -9.999  87.6 -99.99 -9.99
2019/10/18 22:18 EDT   48.82  48.90   10  157   15  46.6  53.1 1015.2 -9.9 -9.999  87.7 -99.99 -9.99
2019/10/18 22:24 EDT   48.70  48.74   12  149   14  46.8  53.1 1015.2 -9.9 -9.999  88.7 -99.99 -9.99
2019/10/18 22:30 EDT   48.54  48.62   11  154   15  46.8  53.1 1015.2 -9.9 -9.999  89.0 -99.99 -9.99
2019/10/18 22:36 EDT   48.50  48.54   13  150   17  46.8  53.1 1015.1 -9.9 -9.999  89.3 -99.99 -9.99
2019/10/18 22:42 EDT   48.58  48.66   14  155   18  46.9  53.1 1015.1 -9.9 -9.999  89.7 -99.99 -9.99
2019/10/18 22:48 EDT   48.43  48.50   13  152   17  46.9  53.1 1015.1 -9.9 -9.999  89.6 -99.99 -9.99
2019/10/18 22:54 EDT   48.62  48.66   14  154   17  47.1  53.1 1015.0 -9.9 -9.999  90.1 -99.99 -9.99
2019/10/18 23:00 EDT   48.74  48.82   16  156   18  47.3  53.1 1014.9 -9.9 -9.999  88.4 -99.99 -9.99
2019/10/18 23:06 EDT   48.62  48.70   15  165   20  47.1  53.1 1014.9 -9.9 -9.999  88.5 -99.99 -9.99
2019/10/18 23:12 EDT   48.66  48.70   15  159   18  47.1  53.1 1014.8 -9.9 -9.999  88.5 -99.99 -9.99
2019/10/18 23:18 EDT   48.58  48.66   17  162   20  47.1  53.1 1014.7 -9.9 -9.999  87.6 -99.99 -9.99
2019/10/18 23:24 EDT   48.35  48.39   15  161   19  47.1  53.1 1014.6 -9.9 -9.999  89.4 -99.99 -9.99
2019/10/18 23:30 EDT   48.43  48.46   15  159   20  47.3  53.1 1014.6 -9.9 -9.999  90.0 -99.99 -9.99
2019/10/18 23:36 EDT   48.43  48.50   16  155   20  47.1  53.1 1014.6 -9.9 -9.999  89.4 -99.99 -9.99
2019/10/18 23:42 EDT   48.43  48.46   16  163   19  47.1  53.1 1014.6 -9.9 -9.999  89.3 -99.99 -9.99
2019/10/18 23:48 EDT   48.27  48.31   16  162   20  47.1  53.1 1014.6 -9.9 -9.999  88.6 -99.99 -9.99
2019/10/18 23:54 EDT   48.58  48.66   16  164   18  47.1  53.1 1014.6 -9.9 -9.999  89.0 -99.99 -9.99
2019/10/19 00:00 EDT   48.54  48.58   17  166   19  46.9  53.1 1014.6 -9.9 -9.999  87.9 -99.99 -9.99
2019/10/19 00:06 EDT  -99.99 -99.99 -999 -999 -999 -99.9 -99.9 -999.9 -9.9 -9.999 -99.9 -99.99 -9.99